<?xml version="1.0" encoding="UTF-8" standalone="no" ?>
<gpx xmlns="http://www.topografix.com/GPX/1/1" xmlns:xsi="http://www.w3.org/2001/XMLSchema-instance" xsi:schemaLocation="http://www.topografix.com/GPX/1/1 http://www.topografix.com/GPX/1/1/gpx.xsd" version="1.1" creator="VisuGPX - https://www.visugpx.com">
  <metadata>
    <name>Gr65 COMPOSTELLE - Etape 10</name>
    <desc><![CDATA[Etape de Livinhac Le Haut à Figeac.
Nuit au Coquelicot.]]></desc>
  </metadata>
  <trk>
    <name><![CDATA[2018-04-30 13:08:47]]></name>
    <trkseg>
      <trkpt lat="44.59147" lon="2.23174">
        <ele>179.42</ele>
        <time>2018-04-30T05:06:28Z</time>
      </trkpt>
      <trkpt lat="44.59149" lon="2.2317">
        <ele>179.9</ele>
        <time>2018-04-30T05:06:37Z</time>
      </trkpt>
      <trkpt lat="44.59151" lon="2.23164">
        <ele>181.35</ele>
        <time>2018-04-30T05:06:40Z</time>
      </trkpt>
      <trkpt lat="44.59147" lon="2.23158">
        <ele>186.63</ele>
        <time>2018-04-30T05:06:52Z</time>
      </trkpt>
      <trkpt lat="44.59148" lon="2.23159">
        <ele>186.63</ele>
        <time>2018-04-30T05:07:10Z</time>
      </trkpt>
      <trkpt lat="44.5915" lon="2.23166">
        <ele>187.11</ele>
        <time>2018-04-30T05:07:34Z</time>
      </trkpt>
      <trkpt lat="44.59142" lon="2.23153">
        <ele>194.8</ele>
        <time>2018-04-30T05:07:58Z</time>
      </trkpt>
      <trkpt lat="44.59139" lon="2.23146">
        <ele>197.21</ele>
        <time>2018-04-30T05:08:23Z</time>
      </trkpt>
      <trkpt lat="44.59138" lon="2.23143">
        <ele>198.65</ele>
        <time>2018-04-30T05:08:31Z</time>
      </trkpt>
      <trkpt lat="44.59139" lon="2.23141">
        <ele>199.13</ele>
        <time>2018-04-30T05:08:35Z</time>
      </trkpt>
      <trkpt lat="44.59144" lon="2.23131">
        <ele>200.09</ele>
        <time>2018-04-30T05:08:47Z</time>
      </trkpt>
      <trkpt lat="44.59147" lon="2.2312">
        <ele>200.57</ele>
        <time>2018-04-30T05:08:59Z</time>
      </trkpt>
      <trkpt lat="44.5915" lon="2.23105">
        <ele>201.05</ele>
        <time>2018-04-30T05:09:15Z</time>
      </trkpt>
      <trkpt lat="44.59144" lon="2.23085">
        <ele>201.05</ele>
        <time>2018-04-30T05:09:37Z</time>
      </trkpt>
      <trkpt lat="44.59139" lon="2.23066">
        <ele>197.21</ele>
        <time>2018-04-30T05:09:55Z</time>
      </trkpt>
      <trkpt lat="44.59141" lon="2.23062">
        <ele>195.77</ele>
        <time>2018-04-30T05:10:21Z</time>
      </trkpt>
      <trkpt lat="44.59141" lon="2.23057">
        <ele>195.28</ele>
        <time>2018-04-30T05:10:44Z</time>
      </trkpt>
      <trkpt lat="44.59138" lon="2.23047">
        <ele>195.28</ele>
        <time>2018-04-30T05:11:05Z</time>
      </trkpt>
      <trkpt lat="44.59127" lon="2.23022">
        <ele>195.28</ele>
        <time>2018-04-30T05:11:23Z</time>
      </trkpt>
      <trkpt lat="44.5913" lon="2.23011">
        <ele>195.28</ele>
        <time>2018-04-30T05:11:32Z</time>
      </trkpt>
      <trkpt lat="44.5914" lon="2.22993">
        <ele>194.8</ele>
        <time>2018-04-30T05:11:44Z</time>
      </trkpt>
      <trkpt lat="44.59144" lon="2.22971">
        <ele>193.84</ele>
        <time>2018-04-30T05:12:03Z</time>
      </trkpt>
      <trkpt lat="44.59144" lon="2.22968">
        <ele>193.84</ele>
        <time>2018-04-30T05:12:05Z</time>
      </trkpt>
      <trkpt lat="44.59154" lon="2.22941">
        <ele>193.84</ele>
        <time>2018-04-30T05:12:23Z</time>
      </trkpt>
      <trkpt lat="44.59165" lon="2.22911">
        <ele>193.36</ele>
        <time>2018-04-30T05:12:43Z</time>
      </trkpt>
      <trkpt lat="44.59178" lon="2.22878">
        <ele>192.4</ele>
        <time>2018-04-30T05:13:02Z</time>
      </trkpt>
      <trkpt lat="44.59186" lon="2.22862">
        <ele>191.44</ele>
        <time>2018-04-30T05:13:18Z</time>
      </trkpt>
      <trkpt lat="44.59198" lon="2.22837">
        <ele>190</ele>
        <time>2018-04-30T05:13:37Z</time>
      </trkpt>
      <trkpt lat="44.59204" lon="2.22814">
        <ele>189.52</ele>
        <time>2018-04-30T05:13:55Z</time>
      </trkpt>
      <trkpt lat="44.59229" lon="2.22807">
        <ele>188.08</ele>
        <time>2018-04-30T05:14:16Z</time>
      </trkpt>
      <trkpt lat="44.59255" lon="2.228">
        <ele>184.23</ele>
        <time>2018-04-30T05:14:38Z</time>
      </trkpt>
      <trkpt lat="44.59273" lon="2.22786">
        <ele>176.54</ele>
        <time>2018-04-30T05:14:57Z</time>
      </trkpt>
      <trkpt lat="44.59293" lon="2.22772">
        <ele>175.58</ele>
        <time>2018-04-30T05:15:20Z</time>
      </trkpt>
      <trkpt lat="44.59322" lon="2.22753">
        <ele>175.58</ele>
        <time>2018-04-30T05:15:39Z</time>
      </trkpt>
      <trkpt lat="44.59351" lon="2.22733">
        <ele>174.14</ele>
        <time>2018-04-30T05:16:01Z</time>
      </trkpt>
      <trkpt lat="44.59374" lon="2.22717">
        <ele>172.21</ele>
        <time>2018-04-30T05:16:22Z</time>
      </trkpt>
      <trkpt lat="44.594" lon="2.22708">
        <ele>172.21</ele>
        <time>2018-04-30T05:16:41Z</time>
      </trkpt>
      <trkpt lat="44.59424" lon="2.22699">
        <ele>172.69</ele>
        <time>2018-04-30T05:17:02Z</time>
      </trkpt>
      <trkpt lat="44.59448" lon="2.22686">
        <ele>172.21</ele>
        <time>2018-04-30T05:17:24Z</time>
      </trkpt>
      <trkpt lat="44.5947" lon="2.22671">
        <ele>172.21</ele>
        <time>2018-04-30T05:17:43Z</time>
      </trkpt>
      <trkpt lat="44.59491" lon="2.22663">
        <ele>172.69</ele>
        <time>2018-04-30T05:18:03Z</time>
      </trkpt>
      <trkpt lat="44.59515" lon="2.22662">
        <ele>173.17</ele>
        <time>2018-04-30T05:18:25Z</time>
      </trkpt>
      <trkpt lat="44.59529" lon="2.22659">
        <ele>173.17</ele>
        <time>2018-04-30T05:18:41Z</time>
      </trkpt>
      <trkpt lat="44.59541" lon="2.22663">
        <ele>172.21</ele>
        <time>2018-04-30T05:19:01Z</time>
      </trkpt>
      <trkpt lat="44.59557" lon="2.22665">
        <ele>171.25</ele>
        <time>2018-04-30T05:19:21Z</time>
      </trkpt>
      <trkpt lat="44.59575" lon="2.22669">
        <ele>171.25</ele>
        <time>2018-04-30T05:19:41Z</time>
      </trkpt>
      <trkpt lat="44.59589" lon="2.2267">
        <ele>170.77</ele>
        <time>2018-04-30T05:20:00Z</time>
      </trkpt>
      <trkpt lat="44.59595" lon="2.22671">
        <ele>170.77</ele>
        <time>2018-04-30T05:20:08Z</time>
      </trkpt>
      <trkpt lat="44.59614" lon="2.22671">
        <ele>170.77</ele>
        <time>2018-04-30T05:20:26Z</time>
      </trkpt>
      <trkpt lat="44.59625" lon="2.22665">
        <ele>170.77</ele>
        <time>2018-04-30T05:20:43Z</time>
      </trkpt>
      <trkpt lat="44.59639" lon="2.22657">
        <ele>170.77</ele>
        <time>2018-04-30T05:21:01Z</time>
      </trkpt>
      <trkpt lat="44.59649" lon="2.22648">
        <ele>170.77</ele>
        <time>2018-04-30T05:21:18Z</time>
      </trkpt>
      <trkpt lat="44.59663" lon="2.2264">
        <ele>171.73</ele>
        <time>2018-04-30T05:21:35Z</time>
      </trkpt>
      <trkpt lat="44.59675" lon="2.2263">
        <ele>174.14</ele>
        <time>2018-04-30T05:21:55Z</time>
      </trkpt>
      <trkpt lat="44.59706" lon="2.2262">
        <ele>176.54</ele>
        <time>2018-04-30T05:22:33Z</time>
      </trkpt>
      <trkpt lat="44.59726" lon="2.22623">
        <ele>179.9</ele>
        <time>2018-04-30T05:22:54Z</time>
      </trkpt>
      <trkpt lat="44.5974" lon="2.22627">
        <ele>184.23</ele>
        <time>2018-04-30T05:23:14Z</time>
      </trkpt>
      <trkpt lat="44.59755" lon="2.22629">
        <ele>187.59</ele>
        <time>2018-04-30T05:23:31Z</time>
      </trkpt>
      <trkpt lat="44.59771" lon="2.22635">
        <ele>191.44</ele>
        <time>2018-04-30T05:23:49Z</time>
      </trkpt>
      <trkpt lat="44.59784" lon="2.22642">
        <ele>194.8</ele>
        <time>2018-04-30T05:24:05Z</time>
      </trkpt>
      <trkpt lat="44.59797" lon="2.22647">
        <ele>199.61</ele>
        <time>2018-04-30T05:24:23Z</time>
      </trkpt>
      <trkpt lat="44.59813" lon="2.22652">
        <ele>204.42</ele>
        <time>2018-04-30T05:24:39Z</time>
      </trkpt>
      <trkpt lat="44.59829" lon="2.22661">
        <ele>208.74</ele>
        <time>2018-04-30T05:24:55Z</time>
      </trkpt>
      <trkpt lat="44.59841" lon="2.22667">
        <ele>212.59</ele>
        <time>2018-04-30T05:25:10Z</time>
      </trkpt>
      <trkpt lat="44.59855" lon="2.22673">
        <ele>215.95</ele>
        <time>2018-04-30T05:25:27Z</time>
      </trkpt>
      <trkpt lat="44.59867" lon="2.22679">
        <ele>218.36</ele>
        <time>2018-04-30T05:25:45Z</time>
      </trkpt>
      <trkpt lat="44.59878" lon="2.22686">
        <ele>220.76</ele>
        <time>2018-04-30T05:26:01Z</time>
      </trkpt>
      <trkpt lat="44.5989" lon="2.22685">
        <ele>222.2</ele>
        <time>2018-04-30T05:26:16Z</time>
      </trkpt>
      <trkpt lat="44.59907" lon="2.22685">
        <ele>225.57</ele>
        <time>2018-04-30T05:26:36Z</time>
      </trkpt>
      <trkpt lat="44.59926" lon="2.22684">
        <ele>228.93</ele>
        <time>2018-04-30T05:26:56Z</time>
      </trkpt>
      <trkpt lat="44.5994" lon="2.22686">
        <ele>231.33</ele>
        <time>2018-04-30T05:27:12Z</time>
      </trkpt>
      <trkpt lat="44.59959" lon="2.22689">
        <ele>235.18</ele>
        <time>2018-04-30T05:27:31Z</time>
      </trkpt>
      <trkpt lat="44.59971" lon="2.22693">
        <ele>237.58</ele>
        <time>2018-04-30T05:27:46Z</time>
      </trkpt>
      <trkpt lat="44.59986" lon="2.227">
        <ele>239.51</ele>
        <time>2018-04-30T05:28:02Z</time>
      </trkpt>
      <trkpt lat="44.59999" lon="2.2271">
        <ele>241.43</ele>
        <time>2018-04-30T05:28:18Z</time>
      </trkpt>
      <trkpt lat="44.60009" lon="2.22715">
        <ele>243.83</ele>
        <time>2018-04-30T05:28:31Z</time>
      </trkpt>
      <trkpt lat="44.60022" lon="2.2272">
        <ele>245.75</ele>
        <time>2018-04-30T05:28:45Z</time>
      </trkpt>
      <trkpt lat="44.60041" lon="2.22719">
        <ele>249.12</ele>
        <time>2018-04-30T05:29:06Z</time>
      </trkpt>
      <trkpt lat="44.60064" lon="2.22712">
        <ele>252.96</ele>
        <time>2018-04-30T05:29:28Z</time>
      </trkpt>
      <trkpt lat="44.60081" lon="2.22713">
        <ele>257.77</ele>
        <time>2018-04-30T05:29:47Z</time>
      </trkpt>
      <trkpt lat="44.60099" lon="2.22713">
        <ele>262.1</ele>
        <time>2018-04-30T05:30:06Z</time>
      </trkpt>
      <trkpt lat="44.60121" lon="2.22711">
        <ele>267.38</ele>
        <time>2018-04-30T05:30:28Z</time>
      </trkpt>
      <trkpt lat="44.60138" lon="2.22707">
        <ele>271.23</ele>
        <time>2018-04-30T05:30:47Z</time>
      </trkpt>
      <trkpt lat="44.6016" lon="2.22702">
        <ele>273.15</ele>
        <time>2018-04-30T05:31:11Z</time>
      </trkpt>
      <trkpt lat="44.60181" lon="2.22695">
        <ele>275.07</ele>
        <time>2018-04-30T05:31:33Z</time>
      </trkpt>
      <trkpt lat="44.60188" lon="2.22682">
        <ele>277.48</ele>
        <time>2018-04-30T05:31:52Z</time>
      </trkpt>
      <trkpt lat="44.60198" lon="2.22666">
        <ele>277.96</ele>
        <time>2018-04-30T05:32:11Z</time>
      </trkpt>
      <trkpt lat="44.60208" lon="2.22648">
        <ele>278.92</ele>
        <time>2018-04-30T05:32:28Z</time>
      </trkpt>
      <trkpt lat="44.60221" lon="2.2263">
        <ele>280.36</ele>
        <time>2018-04-30T05:32:48Z</time>
      </trkpt>
      <trkpt lat="44.60232" lon="2.22609">
        <ele>283.73</ele>
        <time>2018-04-30T05:33:08Z</time>
      </trkpt>
      <trkpt lat="44.60244" lon="2.22594">
        <ele>287.09</ele>
        <time>2018-04-30T05:33:26Z</time>
      </trkpt>
      <trkpt lat="44.6026" lon="2.22579">
        <ele>292.38</ele>
        <time>2018-04-30T05:33:50Z</time>
      </trkpt>
      <trkpt lat="44.60273" lon="2.22571">
        <ele>295.26</ele>
        <time>2018-04-30T05:34:11Z</time>
      </trkpt>
      <trkpt lat="44.60286" lon="2.22568">
        <ele>297.18</ele>
        <time>2018-04-30T05:34:26Z</time>
      </trkpt>
      <trkpt lat="44.60305" lon="2.22568">
        <ele>300.07</ele>
        <time>2018-04-30T05:34:45Z</time>
      </trkpt>
      <trkpt lat="44.60318" lon="2.22568">
        <ele>301.51</ele>
        <time>2018-04-30T05:34:58Z</time>
      </trkpt>
      <trkpt lat="44.6034" lon="2.22567">
        <ele>301.99</ele>
        <time>2018-04-30T05:35:17Z</time>
      </trkpt>
      <trkpt lat="44.60353" lon="2.22567">
        <ele>300.55</ele>
        <time>2018-04-30T05:35:35Z</time>
      </trkpt>
      <trkpt lat="44.60378" lon="2.22563">
        <ele>301.03</ele>
        <time>2018-04-30T05:35:56Z</time>
      </trkpt>
      <trkpt lat="44.60402" lon="2.2256">
        <ele>302.47</ele>
        <time>2018-04-30T05:36:15Z</time>
      </trkpt>
      <trkpt lat="44.60424" lon="2.22557">
        <ele>304.39</ele>
        <time>2018-04-30T05:36:34Z</time>
      </trkpt>
      <trkpt lat="44.60444" lon="2.22556">
        <ele>305.36</ele>
        <time>2018-04-30T05:36:54Z</time>
      </trkpt>
      <trkpt lat="44.60466" lon="2.22557">
        <ele>307.76</ele>
        <time>2018-04-30T05:37:13Z</time>
      </trkpt>
      <trkpt lat="44.6049" lon="2.22556">
        <ele>308.24</ele>
        <time>2018-04-30T05:37:33Z</time>
      </trkpt>
      <trkpt lat="44.60503" lon="2.22552">
        <ele>307.76</ele>
        <time>2018-04-30T05:37:45Z</time>
      </trkpt>
      <trkpt lat="44.60506" lon="2.22548">
        <ele>307.28</ele>
        <time>2018-04-30T05:37:48Z</time>
      </trkpt>
      <trkpt lat="44.60511" lon="2.22546">
        <ele>306.32</ele>
        <time>2018-04-30T05:37:52Z</time>
      </trkpt>
      <trkpt lat="44.60533" lon="2.22542">
        <ele>303.91</ele>
        <time>2018-04-30T05:38:10Z</time>
      </trkpt>
      <trkpt lat="44.60554" lon="2.22536">
        <ele>300.55</ele>
        <time>2018-04-30T05:38:32Z</time>
      </trkpt>
      <trkpt lat="44.6058" lon="2.22535">
        <ele>298.15</ele>
        <time>2018-04-30T05:38:54Z</time>
      </trkpt>
      <trkpt lat="44.60601" lon="2.2253">
        <ele>295.74</ele>
        <time>2018-04-30T05:39:14Z</time>
      </trkpt>
      <trkpt lat="44.6062" lon="2.22523">
        <ele>294.78</ele>
        <time>2018-04-30T05:39:34Z</time>
      </trkpt>
      <trkpt lat="44.60647" lon="2.22511">
        <ele>296.22</ele>
        <time>2018-04-30T05:39:52Z</time>
      </trkpt>
      <trkpt lat="44.60674" lon="2.225">
        <ele>299.11</ele>
        <time>2018-04-30T05:40:11Z</time>
      </trkpt>
      <trkpt lat="44.60695" lon="2.22493">
        <ele>299.11</ele>
        <time>2018-04-30T05:40:30Z</time>
      </trkpt>
      <trkpt lat="44.60718" lon="2.22484">
        <ele>300.07</ele>
        <time>2018-04-30T05:40:50Z</time>
      </trkpt>
      <trkpt lat="44.60739" lon="2.22476">
        <ele>300.55</ele>
        <time>2018-04-30T05:41:07Z</time>
      </trkpt>
      <trkpt lat="44.60758" lon="2.22467">
        <ele>302.47</ele>
        <time>2018-04-30T05:41:25Z</time>
      </trkpt>
      <trkpt lat="44.60781" lon="2.22458">
        <ele>302.95</ele>
        <time>2018-04-30T05:41:46Z</time>
      </trkpt>
      <trkpt lat="44.60801" lon="2.22453">
        <ele>300.55</ele>
        <time>2018-04-30T05:42:04Z</time>
      </trkpt>
      <trkpt lat="44.60817" lon="2.22444">
        <ele>297.18</ele>
        <time>2018-04-30T05:42:22Z</time>
      </trkpt>
      <trkpt lat="44.60834" lon="2.22439">
        <ele>295.26</ele>
        <time>2018-04-30T05:42:41Z</time>
      </trkpt>
      <trkpt lat="44.60858" lon="2.22433">
        <ele>292.86</ele>
        <time>2018-04-30T05:43:00Z</time>
      </trkpt>
      <trkpt lat="44.60888" lon="2.22416">
        <ele>294.78</ele>
        <time>2018-04-30T05:43:22Z</time>
      </trkpt>
      <trkpt lat="44.60908" lon="2.22401">
        <ele>294.78</ele>
        <time>2018-04-30T05:43:43Z</time>
      </trkpt>
      <trkpt lat="44.60924" lon="2.2239">
        <ele>290.94</ele>
        <time>2018-04-30T05:43:58Z</time>
      </trkpt>
      <trkpt lat="44.60945" lon="2.22375">
        <ele>286.61</ele>
        <time>2018-04-30T05:44:14Z</time>
      </trkpt>
      <trkpt lat="44.60962" lon="2.22372">
        <ele>284.69</ele>
        <time>2018-04-30T05:44:30Z</time>
      </trkpt>
      <trkpt lat="44.60987" lon="2.22348">
        <ele>280.36</ele>
        <time>2018-04-30T05:44:50Z</time>
      </trkpt>
      <trkpt lat="44.61003" lon="2.22317">
        <ele>275.07</ele>
        <time>2018-04-30T05:45:09Z</time>
      </trkpt>
      <trkpt lat="44.61016" lon="2.22285">
        <ele>273.15</ele>
        <time>2018-04-30T05:45:29Z</time>
      </trkpt>
      <trkpt lat="44.61021" lon="2.2225">
        <ele>275.07</ele>
        <time>2018-04-30T05:45:50Z</time>
      </trkpt>
      <trkpt lat="44.61028" lon="2.22224">
        <ele>275.07</ele>
        <time>2018-04-30T05:46:10Z</time>
      </trkpt>
      <trkpt lat="44.61032" lon="2.2219">
        <ele>271.23</ele>
        <time>2018-04-30T05:46:35Z</time>
      </trkpt>
      <trkpt lat="44.61043" lon="2.22154">
        <ele>273.63</ele>
        <time>2018-04-30T05:46:57Z</time>
      </trkpt>
      <trkpt lat="44.61055" lon="2.22129">
        <ele>273.63</ele>
        <time>2018-04-30T05:47:16Z</time>
      </trkpt>
      <trkpt lat="44.6107" lon="2.22102">
        <ele>275.56</ele>
        <time>2018-04-30T05:47:35Z</time>
      </trkpt>
      <trkpt lat="44.6108" lon="2.22074">
        <ele>277.96</ele>
        <time>2018-04-30T05:47:53Z</time>
      </trkpt>
      <trkpt lat="44.61095" lon="2.22042">
        <ele>278.92</ele>
        <time>2018-04-30T05:48:14Z</time>
      </trkpt>
      <trkpt lat="44.6111" lon="2.22012">
        <ele>282.28</ele>
        <time>2018-04-30T05:48:35Z</time>
      </trkpt>
      <trkpt lat="44.61126" lon="2.21981">
        <ele>284.69</ele>
        <time>2018-04-30T05:48:56Z</time>
      </trkpt>
      <trkpt lat="44.61137" lon="2.21955">
        <ele>285.65</ele>
        <time>2018-04-30T05:49:15Z</time>
      </trkpt>
      <trkpt lat="44.61152" lon="2.21931">
        <ele>288.53</ele>
        <time>2018-04-30T05:49:34Z</time>
      </trkpt>
      <trkpt lat="44.61166" lon="2.21905">
        <ele>290.94</ele>
        <time>2018-04-30T05:49:53Z</time>
      </trkpt>
      <trkpt lat="44.61179" lon="2.21886">
        <ele>290.94</ele>
        <time>2018-04-30T05:50:11Z</time>
      </trkpt>
      <trkpt lat="44.61191" lon="2.21863">
        <ele>289.97</ele>
        <time>2018-04-30T05:50:31Z</time>
      </trkpt>
      <trkpt lat="44.61204" lon="2.21842">
        <ele>289.49</ele>
        <time>2018-04-30T05:50:49Z</time>
      </trkpt>
      <trkpt lat="44.61218" lon="2.21823">
        <ele>289.49</ele>
        <time>2018-04-30T05:51:05Z</time>
      </trkpt>
      <trkpt lat="44.61235" lon="2.21801">
        <ele>289.97</ele>
        <time>2018-04-30T05:51:22Z</time>
      </trkpt>
      <trkpt lat="44.61255" lon="2.21771">
        <ele>291.42</ele>
        <time>2018-04-30T05:51:44Z</time>
      </trkpt>
      <trkpt lat="44.61263" lon="2.21748">
        <ele>290.46</ele>
        <time>2018-04-30T05:52:02Z</time>
      </trkpt>
      <trkpt lat="44.61271" lon="2.21714">
        <ele>292.38</ele>
        <time>2018-04-30T05:52:21Z</time>
      </trkpt>
      <trkpt lat="44.61276" lon="2.21684">
        <ele>293.82</ele>
        <time>2018-04-30T05:52:37Z</time>
      </trkpt>
      <trkpt lat="44.61278" lon="2.21658">
        <ele>295.26</ele>
        <time>2018-04-30T05:52:55Z</time>
      </trkpt>
      <trkpt lat="44.61284" lon="2.21632">
        <ele>294.78</ele>
        <time>2018-04-30T05:53:12Z</time>
      </trkpt>
      <trkpt lat="44.61287" lon="2.216">
        <ele>293.34</ele>
        <time>2018-04-30T05:53:30Z</time>
      </trkpt>
      <trkpt lat="44.61294" lon="2.2157">
        <ele>292.38</ele>
        <time>2018-04-30T05:53:47Z</time>
      </trkpt>
      <trkpt lat="44.61298" lon="2.21538">
        <ele>293.82</ele>
        <time>2018-04-30T05:54:04Z</time>
      </trkpt>
      <trkpt lat="44.61296" lon="2.21511">
        <ele>296.22</ele>
        <time>2018-04-30T05:54:19Z</time>
      </trkpt>
      <trkpt lat="44.61293" lon="2.21483">
        <ele>298.15</ele>
        <time>2018-04-30T05:54:37Z</time>
      </trkpt>
      <trkpt lat="44.61289" lon="2.21452">
        <ele>300.07</ele>
        <time>2018-04-30T05:54:59Z</time>
      </trkpt>
      <trkpt lat="44.6129" lon="2.21432">
        <ele>304.39</ele>
        <time>2018-04-30T05:55:16Z</time>
      </trkpt>
      <trkpt lat="44.61302" lon="2.21411">
        <ele>304.88</ele>
        <time>2018-04-30T05:55:33Z</time>
      </trkpt>
      <trkpt lat="44.6131" lon="2.21396">
        <ele>304.39</ele>
        <time>2018-04-30T05:55:44Z</time>
      </trkpt>
      <trkpt lat="44.61327" lon="2.21364">
        <ele>303.91</ele>
        <time>2018-04-30T05:56:07Z</time>
      </trkpt>
      <trkpt lat="44.61343" lon="2.21337">
        <ele>304.39</ele>
        <time>2018-04-30T05:56:27Z</time>
      </trkpt>
      <trkpt lat="44.61355" lon="2.21316">
        <ele>304.88</ele>
        <time>2018-04-30T05:56:44Z</time>
      </trkpt>
      <trkpt lat="44.61364" lon="2.21287">
        <ele>304.88</ele>
        <time>2018-04-30T05:57:03Z</time>
      </trkpt>
      <trkpt lat="44.61368" lon="2.21256">
        <ele>304.88</ele>
        <time>2018-04-30T05:57:21Z</time>
      </trkpt>
      <trkpt lat="44.6137" lon="2.21246">
        <ele>305.84</ele>
        <time>2018-04-30T05:57:27Z</time>
      </trkpt>
      <trkpt lat="44.61372" lon="2.21224">
        <ele>308.72</ele>
        <time>2018-04-30T05:57:42Z</time>
      </trkpt>
      <trkpt lat="44.61379" lon="2.21203">
        <ele>311.6</ele>
        <time>2018-04-30T05:57:57Z</time>
      </trkpt>
      <trkpt lat="44.61389" lon="2.2118">
        <ele>312.57</ele>
        <time>2018-04-30T05:58:14Z</time>
      </trkpt>
      <trkpt lat="44.61398" lon="2.21156">
        <ele>314.97</ele>
        <time>2018-04-30T05:58:31Z</time>
      </trkpt>
      <trkpt lat="44.61404" lon="2.21132">
        <ele>314.97</ele>
        <time>2018-04-30T05:58:51Z</time>
      </trkpt>
      <trkpt lat="44.61411" lon="2.21108">
        <ele>315.45</ele>
        <time>2018-04-30T05:59:08Z</time>
      </trkpt>
      <trkpt lat="44.61422" lon="2.21087">
        <ele>316.89</ele>
        <time>2018-04-30T05:59:26Z</time>
      </trkpt>
      <trkpt lat="44.61432" lon="2.21068">
        <ele>318.81</ele>
        <time>2018-04-30T05:59:44Z</time>
      </trkpt>
      <trkpt lat="44.61441" lon="2.21047">
        <ele>318.81</ele>
        <time>2018-04-30T06:00:00Z</time>
      </trkpt>
      <trkpt lat="44.61449" lon="2.21026">
        <ele>317.37</ele>
        <time>2018-04-30T06:00:16Z</time>
      </trkpt>
      <trkpt lat="44.61464" lon="2.21007">
        <ele>317.85</ele>
        <time>2018-04-30T06:00:33Z</time>
      </trkpt>
      <trkpt lat="44.61474" lon="2.20984">
        <ele>317.85</ele>
        <time>2018-04-30T06:00:49Z</time>
      </trkpt>
      <trkpt lat="44.6148" lon="2.20955">
        <ele>318.33</ele>
        <time>2018-04-30T06:01:07Z</time>
      </trkpt>
      <trkpt lat="44.61488" lon="2.20929">
        <ele>318.33</ele>
        <time>2018-04-30T06:01:25Z</time>
      </trkpt>
      <trkpt lat="44.61503" lon="2.20906">
        <ele>320.26</ele>
        <time>2018-04-30T06:01:45Z</time>
      </trkpt>
      <trkpt lat="44.61521" lon="2.20882">
        <ele>323.14</ele>
        <time>2018-04-30T06:02:06Z</time>
      </trkpt>
      <trkpt lat="44.61537" lon="2.20854">
        <ele>323.14</ele>
        <time>2018-04-30T06:02:30Z</time>
      </trkpt>
      <trkpt lat="44.61551" lon="2.2083">
        <ele>322.66</ele>
        <time>2018-04-30T06:02:50Z</time>
      </trkpt>
      <trkpt lat="44.61561" lon="2.20807">
        <ele>323.62</ele>
        <time>2018-04-30T06:03:08Z</time>
      </trkpt>
      <trkpt lat="44.61557" lon="2.20777">
        <ele>324.1</ele>
        <time>2018-04-30T06:03:29Z</time>
      </trkpt>
      <trkpt lat="44.61557" lon="2.20746">
        <ele>325.54</ele>
        <time>2018-04-30T06:03:49Z</time>
      </trkpt>
      <trkpt lat="44.61561" lon="2.20716">
        <ele>327.47</ele>
        <time>2018-04-30T06:04:07Z</time>
      </trkpt>
      <trkpt lat="44.61567" lon="2.20691">
        <ele>329.39</ele>
        <time>2018-04-30T06:04:25Z</time>
      </trkpt>
      <trkpt lat="44.6158" lon="2.20668">
        <ele>331.31</ele>
        <time>2018-04-30T06:04:45Z</time>
      </trkpt>
      <trkpt lat="44.6159" lon="2.20642">
        <ele>331.31</ele>
        <time>2018-04-30T06:05:06Z</time>
      </trkpt>
      <trkpt lat="44.61603" lon="2.20613">
        <ele>334.2</ele>
        <time>2018-04-30T06:05:26Z</time>
      </trkpt>
      <trkpt lat="44.61613" lon="2.2058">
        <ele>338.04</ele>
        <time>2018-04-30T06:05:46Z</time>
      </trkpt>
      <trkpt lat="44.61623" lon="2.20557">
        <ele>341.89</ele>
        <time>2018-04-30T06:06:03Z</time>
      </trkpt>
      <trkpt lat="44.61634" lon="2.20531">
        <ele>344.77</ele>
        <time>2018-04-30T06:06:22Z</time>
      </trkpt>
      <trkpt lat="44.61642" lon="2.20502">
        <ele>343.33</ele>
        <time>2018-04-30T06:06:42Z</time>
      </trkpt>
      <trkpt lat="44.61647" lon="2.20467">
        <ele>337.56</ele>
        <time>2018-04-30T06:07:04Z</time>
      </trkpt>
      <trkpt lat="44.61652" lon="2.20438">
        <ele>334.68</ele>
        <time>2018-04-30T06:07:24Z</time>
      </trkpt>
      <trkpt lat="44.61646" lon="2.20416">
        <ele>333.71</ele>
        <time>2018-04-30T06:07:38Z</time>
      </trkpt>
      <trkpt lat="44.61636" lon="2.20376">
        <ele>334.68</ele>
        <time>2018-04-30T06:07:58Z</time>
      </trkpt>
      <trkpt lat="44.61633" lon="2.20341">
        <ele>337.56</ele>
        <time>2018-04-30T06:08:18Z</time>
      </trkpt>
      <trkpt lat="44.61632" lon="2.20311">
        <ele>338.52</ele>
        <time>2018-04-30T06:08:35Z</time>
      </trkpt>
      <trkpt lat="44.61635" lon="2.20278">
        <ele>340.92</ele>
        <time>2018-04-30T06:08:54Z</time>
      </trkpt>
      <trkpt lat="44.61637" lon="2.20247">
        <ele>343.81</ele>
        <time>2018-04-30T06:09:11Z</time>
      </trkpt>
      <trkpt lat="44.61641" lon="2.20217">
        <ele>348.13</ele>
        <time>2018-04-30T06:09:29Z</time>
      </trkpt>
      <trkpt lat="44.61648" lon="2.20184">
        <ele>351.02</ele>
        <time>2018-04-30T06:09:49Z</time>
      </trkpt>
      <trkpt lat="44.61653" lon="2.20158">
        <ele>352.46</ele>
        <time>2018-04-30T06:10:05Z</time>
      </trkpt>
      <trkpt lat="44.61654" lon="2.20129">
        <ele>352.94</ele>
        <time>2018-04-30T06:10:22Z</time>
      </trkpt>
      <trkpt lat="44.6165" lon="2.20093">
        <ele>355.34</ele>
        <time>2018-04-30T06:10:43Z</time>
      </trkpt>
      <trkpt lat="44.61645" lon="2.20062">
        <ele>357.75</ele>
        <time>2018-04-30T06:11:02Z</time>
      </trkpt>
      <trkpt lat="44.61642" lon="2.20034">
        <ele>360.63</ele>
        <time>2018-04-30T06:11:21Z</time>
      </trkpt>
      <trkpt lat="44.61634" lon="2.20009">
        <ele>362.55</ele>
        <time>2018-04-30T06:11:39Z</time>
      </trkpt>
      <trkpt lat="44.61623" lon="2.19983">
        <ele>364.48</ele>
        <time>2018-04-30T06:11:58Z</time>
      </trkpt>
      <trkpt lat="44.61616" lon="2.19968">
        <ele>365.92</ele>
        <time>2018-04-30T06:12:16Z</time>
      </trkpt>
      <trkpt lat="44.61608" lon="2.1996">
        <ele>365.92</ele>
        <time>2018-04-30T06:12:28Z</time>
      </trkpt>
      <trkpt lat="44.61599" lon="2.19948">
        <ele>366.88</ele>
        <time>2018-04-30T06:12:38Z</time>
      </trkpt>
      <trkpt lat="44.61589" lon="2.19939">
        <ele>367.36</ele>
        <time>2018-04-30T06:12:47Z</time>
      </trkpt>
      <trkpt lat="44.61575" lon="2.19916">
        <ele>367.84</ele>
        <time>2018-04-30T06:13:07Z</time>
      </trkpt>
      <trkpt lat="44.6158" lon="2.19887">
        <ele>367.84</ele>
        <time>2018-04-30T06:13:27Z</time>
      </trkpt>
      <trkpt lat="44.61591" lon="2.19856">
        <ele>369.76</ele>
        <time>2018-04-30T06:13:47Z</time>
      </trkpt>
      <trkpt lat="44.61602" lon="2.19817">
        <ele>372.17</ele>
        <time>2018-04-30T06:14:11Z</time>
      </trkpt>
      <trkpt lat="44.61612" lon="2.19791">
        <ele>375.05</ele>
        <time>2018-04-30T06:14:30Z</time>
      </trkpt>
      <trkpt lat="44.61616" lon="2.19768">
        <ele>377.45</ele>
        <time>2018-04-30T06:14:43Z</time>
      </trkpt>
      <trkpt lat="44.61626" lon="2.19736">
        <ele>379.86</ele>
        <time>2018-04-30T06:15:03Z</time>
      </trkpt>
      <trkpt lat="44.61626" lon="2.19707">
        <ele>380.82</ele>
        <time>2018-04-30T06:15:24Z</time>
      </trkpt>
      <trkpt lat="44.61631" lon="2.19677">
        <ele>379.86</ele>
        <time>2018-04-30T06:15:41Z</time>
      </trkpt>
      <trkpt lat="44.61645" lon="2.19652">
        <ele>377.94</ele>
        <time>2018-04-30T06:16:02Z</time>
      </trkpt>
      <trkpt lat="44.61651" lon="2.19642">
        <ele>377.94</ele>
        <time>2018-04-30T06:16:09Z</time>
      </trkpt>
      <trkpt lat="44.61659" lon="2.19615">
        <ele>377.94</ele>
        <time>2018-04-30T06:16:26Z</time>
      </trkpt>
      <trkpt lat="44.61663" lon="2.19598">
        <ele>378.42</ele>
        <time>2018-04-30T06:16:36Z</time>
      </trkpt>
      <trkpt lat="44.61661" lon="2.19584">
        <ele>377.94</ele>
        <time>2018-04-30T06:16:45Z</time>
      </trkpt>
      <trkpt lat="44.61668" lon="2.19557">
        <ele>377.45</ele>
        <time>2018-04-30T06:17:02Z</time>
      </trkpt>
      <trkpt lat="44.61675" lon="2.19528">
        <ele>377.94</ele>
        <time>2018-04-30T06:17:20Z</time>
      </trkpt>
      <trkpt lat="44.61675" lon="2.19515">
        <ele>378.42</ele>
        <time>2018-04-30T06:17:27Z</time>
      </trkpt>
      <trkpt lat="44.61677" lon="2.19487">
        <ele>378.9</ele>
        <time>2018-04-30T06:17:44Z</time>
      </trkpt>
      <trkpt lat="44.61677" lon="2.1946">
        <ele>377.94</ele>
        <time>2018-04-30T06:18:03Z</time>
      </trkpt>
      <trkpt lat="44.61679" lon="2.19431">
        <ele>374.09</ele>
        <time>2018-04-30T06:18:23Z</time>
      </trkpt>
      <trkpt lat="44.61678" lon="2.19407">
        <ele>366.88</ele>
        <time>2018-04-30T06:18:38Z</time>
      </trkpt>
      <trkpt lat="44.61677" lon="2.19382">
        <ele>361.11</ele>
        <time>2018-04-30T06:18:56Z</time>
      </trkpt>
      <trkpt lat="44.6168" lon="2.19355">
        <ele>358.23</ele>
        <time>2018-04-30T06:19:12Z</time>
      </trkpt>
      <trkpt lat="44.61685" lon="2.19326">
        <ele>356.31</ele>
        <time>2018-04-30T06:19:30Z</time>
      </trkpt>
      <trkpt lat="44.61692" lon="2.193">
        <ele>355.83</ele>
        <time>2018-04-30T06:19:45Z</time>
      </trkpt>
      <trkpt lat="44.617" lon="2.19274">
        <ele>356.31</ele>
        <time>2018-04-30T06:20:00Z</time>
      </trkpt>
      <trkpt lat="44.61721" lon="2.1925">
        <ele>357.75</ele>
        <time>2018-04-30T06:20:20Z</time>
      </trkpt>
      <trkpt lat="44.61733" lon="2.19241">
        <ele>358.71</ele>
        <time>2018-04-30T06:20:31Z</time>
      </trkpt>
      <trkpt lat="44.6175" lon="2.19221">
        <ele>360.15</ele>
        <time>2018-04-30T06:20:50Z</time>
      </trkpt>
      <trkpt lat="44.6176" lon="2.19204">
        <ele>363.04</ele>
        <time>2018-04-30T06:21:08Z</time>
      </trkpt>
      <trkpt lat="44.61775" lon="2.19182">
        <ele>366.88</ele>
        <time>2018-04-30T06:21:27Z</time>
      </trkpt>
      <trkpt lat="44.61788" lon="2.19158">
        <ele>369.76</ele>
        <time>2018-04-30T06:21:45Z</time>
      </trkpt>
      <trkpt lat="44.61803" lon="2.19142">
        <ele>374.57</ele>
        <time>2018-04-30T06:22:02Z</time>
      </trkpt>
      <trkpt lat="44.61807" lon="2.19126">
        <ele>376.97</ele>
        <time>2018-04-30T06:22:18Z</time>
      </trkpt>
      <trkpt lat="44.61816" lon="2.19096">
        <ele>377.45</ele>
        <time>2018-04-30T06:22:35Z</time>
      </trkpt>
      <trkpt lat="44.61817" lon="2.19078">
        <ele>378.9</ele>
        <time>2018-04-30T06:22:46Z</time>
      </trkpt>
      <trkpt lat="44.61814" lon="2.19052">
        <ele>381.3</ele>
        <time>2018-04-30T06:23:01Z</time>
      </trkpt>
      <trkpt lat="44.61794" lon="2.19041">
        <ele>386.11</ele>
        <time>2018-04-30T06:23:22Z</time>
      </trkpt>
      <trkpt lat="44.61788" lon="2.1904">
        <ele>386.11</ele>
        <time>2018-04-30T06:23:26Z</time>
      </trkpt>
      <trkpt lat="44.61769" lon="2.1902">
        <ele>388.03</ele>
        <time>2018-04-30T06:23:44Z</time>
      </trkpt>
      <trkpt lat="44.61758" lon="2.19003">
        <ele>388.99</ele>
        <time>2018-04-30T06:23:58Z</time>
      </trkpt>
      <trkpt lat="44.61745" lon="2.18979">
        <ele>390.43</ele>
        <time>2018-04-30T06:24:15Z</time>
      </trkpt>
      <trkpt lat="44.61734" lon="2.18957">
        <ele>392.36</ele>
        <time>2018-04-30T06:24:34Z</time>
      </trkpt>
      <trkpt lat="44.61724" lon="2.18929">
        <ele>392.84</ele>
        <time>2018-04-30T06:24:53Z</time>
      </trkpt>
      <trkpt lat="44.61711" lon="2.18899">
        <ele>392.36</ele>
        <time>2018-04-30T06:25:10Z</time>
      </trkpt>
      <trkpt lat="44.61701" lon="2.18874">
        <ele>391.87</ele>
        <time>2018-04-30T06:25:24Z</time>
      </trkpt>
      <trkpt lat="44.61698" lon="2.18839">
        <ele>385.63</ele>
        <time>2018-04-30T06:25:43Z</time>
      </trkpt>
      <trkpt lat="44.61699" lon="2.18835">
        <ele>385.15</ele>
        <time>2018-04-30T06:25:45Z</time>
      </trkpt>
      <trkpt lat="44.61707" lon="2.18807">
        <ele>377.94</ele>
        <time>2018-04-30T06:26:03Z</time>
      </trkpt>
      <trkpt lat="44.61721" lon="2.18784">
        <ele>371.21</ele>
        <time>2018-04-30T06:26:25Z</time>
      </trkpt>
      <trkpt lat="44.61734" lon="2.1878">
        <ele>365.92</ele>
        <time>2018-04-30T06:26:45Z</time>
      </trkpt>
      <trkpt lat="44.61761" lon="2.18779">
        <ele>359.67</ele>
        <time>2018-04-30T06:27:07Z</time>
      </trkpt>
      <trkpt lat="44.61793" lon="2.18779">
        <ele>355.34</ele>
        <time>2018-04-30T06:27:30Z</time>
      </trkpt>
      <trkpt lat="44.6182" lon="2.18778">
        <ele>352.94</ele>
        <time>2018-04-30T06:27:49Z</time>
      </trkpt>
      <trkpt lat="44.61855" lon="2.18762">
        <ele>351.5</ele>
        <time>2018-04-30T06:28:07Z</time>
      </trkpt>
      <trkpt lat="44.61871" lon="2.18741">
        <ele>349.1</ele>
        <time>2018-04-30T06:28:26Z</time>
      </trkpt>
      <trkpt lat="44.61888" lon="2.18711">
        <ele>348.62</ele>
        <time>2018-04-30T06:28:46Z</time>
      </trkpt>
      <trkpt lat="44.61893" lon="2.18699">
        <ele>348.13</ele>
        <time>2018-04-30T06:28:54Z</time>
      </trkpt>
      <trkpt lat="44.61907" lon="2.1866">
        <ele>348.13</ele>
        <time>2018-04-30T06:29:12Z</time>
      </trkpt>
      <trkpt lat="44.61905" lon="2.18628">
        <ele>349.1</ele>
        <time>2018-04-30T06:29:30Z</time>
      </trkpt>
      <trkpt lat="44.61905" lon="2.18599">
        <ele>351.02</ele>
        <time>2018-04-30T06:29:46Z</time>
      </trkpt>
      <trkpt lat="44.61911" lon="2.18563">
        <ele>354.86</ele>
        <time>2018-04-30T06:30:04Z</time>
      </trkpt>
      <trkpt lat="44.61913" lon="2.18537">
        <ele>355.34</ele>
        <time>2018-04-30T06:30:21Z</time>
      </trkpt>
      <trkpt lat="44.61913" lon="2.18507">
        <ele>357.27</ele>
        <time>2018-04-30T06:30:39Z</time>
      </trkpt>
      <trkpt lat="44.61914" lon="2.18478">
        <ele>358.71</ele>
        <time>2018-04-30T06:30:57Z</time>
      </trkpt>
      <trkpt lat="44.61913" lon="2.18446">
        <ele>362.07</ele>
        <time>2018-04-30T06:31:15Z</time>
      </trkpt>
      <trkpt lat="44.61916" lon="2.18416">
        <ele>365.92</ele>
        <time>2018-04-30T06:31:32Z</time>
      </trkpt>
      <trkpt lat="44.61916" lon="2.18411">
        <ele>366.4</ele>
        <time>2018-04-30T06:31:35Z</time>
      </trkpt>
      <trkpt lat="44.61917" lon="2.18381">
        <ele>370.24</ele>
        <time>2018-04-30T06:31:52Z</time>
      </trkpt>
      <trkpt lat="44.61918" lon="2.1835">
        <ele>374.57</ele>
        <time>2018-04-30T06:32:11Z</time>
      </trkpt>
      <trkpt lat="44.61919" lon="2.18324">
        <ele>378.42</ele>
        <time>2018-04-30T06:32:28Z</time>
      </trkpt>
      <trkpt lat="44.6192" lon="2.18313">
        <ele>379.86</ele>
        <time>2018-04-30T06:32:35Z</time>
      </trkpt>
      <trkpt lat="44.61922" lon="2.18283">
        <ele>382.26</ele>
        <time>2018-04-30T06:32:54Z</time>
      </trkpt>
      <trkpt lat="44.61926" lon="2.18257">
        <ele>383.7</ele>
        <time>2018-04-30T06:33:16Z</time>
      </trkpt>
      <trkpt lat="44.61931" lon="2.18235">
        <ele>383.7</ele>
        <time>2018-04-30T06:33:31Z</time>
      </trkpt>
      <trkpt lat="44.61935" lon="2.18208">
        <ele>385.15</ele>
        <time>2018-04-30T06:33:47Z</time>
      </trkpt>
      <trkpt lat="44.61929" lon="2.18187">
        <ele>387.07</ele>
        <time>2018-04-30T06:34:02Z</time>
      </trkpt>
      <trkpt lat="44.61913" lon="2.18166">
        <ele>390.43</ele>
        <time>2018-04-30T06:34:23Z</time>
      </trkpt>
      <trkpt lat="44.61906" lon="2.18164">
        <ele>391.87</ele>
        <time>2018-04-30T06:34:29Z</time>
      </trkpt>
      <trkpt lat="44.61885" lon="2.18161">
        <ele>396.68</ele>
        <time>2018-04-30T06:34:49Z</time>
      </trkpt>
      <trkpt lat="44.61861" lon="2.18153">
        <ele>401.49</ele>
        <time>2018-04-30T06:35:08Z</time>
      </trkpt>
      <trkpt lat="44.6184" lon="2.18148">
        <ele>401.01</ele>
        <time>2018-04-30T06:35:26Z</time>
      </trkpt>
      <trkpt lat="44.61821" lon="2.18141">
        <ele>398.6</ele>
        <time>2018-04-30T06:35:43Z</time>
      </trkpt>
      <trkpt lat="44.61799" lon="2.18133">
        <ele>397.64</ele>
        <time>2018-04-30T06:35:59Z</time>
      </trkpt>
      <trkpt lat="44.61774" lon="2.18116">
        <ele>398.6</ele>
        <time>2018-04-30T06:36:21Z</time>
      </trkpt>
      <trkpt lat="44.61757" lon="2.18099">
        <ele>398.6</ele>
        <time>2018-04-30T06:36:41Z</time>
      </trkpt>
      <trkpt lat="44.6174" lon="2.18087">
        <ele>398.12</ele>
        <time>2018-04-30T06:36:56Z</time>
      </trkpt>
      <trkpt lat="44.61727" lon="2.18081">
        <ele>398.12</ele>
        <time>2018-04-30T06:37:13Z</time>
      </trkpt>
      <trkpt lat="44.61725" lon="2.18075">
        <ele>398.12</ele>
        <time>2018-04-30T06:37:36Z</time>
      </trkpt>
      <trkpt lat="44.61704" lon="2.18054">
        <ele>400.53</ele>
        <time>2018-04-30T06:37:54Z</time>
      </trkpt>
      <trkpt lat="44.61692" lon="2.18031">
        <ele>402.45</ele>
        <time>2018-04-30T06:38:10Z</time>
      </trkpt>
      <trkpt lat="44.61691" lon="2.18022">
        <ele>401.97</ele>
        <time>2018-04-30T06:38:16Z</time>
      </trkpt>
      <trkpt lat="44.61695" lon="2.18001">
        <ele>400.05</ele>
        <time>2018-04-30T06:38:30Z</time>
      </trkpt>
      <trkpt lat="44.61708" lon="2.1797">
        <ele>398.6</ele>
        <time>2018-04-30T06:38:51Z</time>
      </trkpt>
      <trkpt lat="44.61716" lon="2.17945">
        <ele>397.16</ele>
        <time>2018-04-30T06:39:10Z</time>
      </trkpt>
      <trkpt lat="44.61712" lon="2.17922">
        <ele>396.2</ele>
        <time>2018-04-30T06:39:26Z</time>
      </trkpt>
      <trkpt lat="44.61709" lon="2.17912">
        <ele>394.76</ele>
        <time>2018-04-30T06:39:34Z</time>
      </trkpt>
      <trkpt lat="44.61712" lon="2.1788">
        <ele>391.39</ele>
        <time>2018-04-30T06:39:53Z</time>
      </trkpt>
      <trkpt lat="44.61721" lon="2.1786">
        <ele>388.51</ele>
        <time>2018-04-30T06:40:10Z</time>
      </trkpt>
      <trkpt lat="44.61736" lon="2.1786">
        <ele>386.59</ele>
        <time>2018-04-30T06:40:26Z</time>
      </trkpt>
      <trkpt lat="44.61751" lon="2.1785">
        <ele>384.18</ele>
        <time>2018-04-30T06:40:41Z</time>
      </trkpt>
      <trkpt lat="44.61762" lon="2.17829">
        <ele>383.7</ele>
        <time>2018-04-30T06:40:56Z</time>
      </trkpt>
      <trkpt lat="44.61778" lon="2.17803">
        <ele>384.66</ele>
        <time>2018-04-30T06:41:13Z</time>
      </trkpt>
      <trkpt lat="44.61791" lon="2.17782">
        <ele>386.11</ele>
        <time>2018-04-30T06:41:28Z</time>
      </trkpt>
      <trkpt lat="44.61813" lon="2.17783">
        <ele>386.59</ele>
        <time>2018-04-30T06:41:48Z</time>
      </trkpt>
      <trkpt lat="44.61837" lon="2.1778">
        <ele>385.63</ele>
        <time>2018-04-30T06:42:06Z</time>
      </trkpt>
      <trkpt lat="44.61842" lon="2.17777">
        <ele>385.63</ele>
        <time>2018-04-30T06:42:09Z</time>
      </trkpt>
      <trkpt lat="44.61858" lon="2.17754">
        <ele>386.11</ele>
        <time>2018-04-30T06:42:26Z</time>
      </trkpt>
      <trkpt lat="44.61871" lon="2.17732">
        <ele>386.11</ele>
        <time>2018-04-30T06:42:44Z</time>
      </trkpt>
      <trkpt lat="44.61875" lon="2.17711">
        <ele>386.11</ele>
        <time>2018-04-30T06:43:00Z</time>
      </trkpt>
      <trkpt lat="44.61874" lon="2.17707">
        <ele>386.11</ele>
        <time>2018-04-30T06:43:03Z</time>
      </trkpt>
      <trkpt lat="44.61884" lon="2.17678">
        <ele>386.59</ele>
        <time>2018-04-30T06:43:23Z</time>
      </trkpt>
      <trkpt lat="44.61891" lon="2.17654">
        <ele>386.11</ele>
        <time>2018-04-30T06:43:38Z</time>
      </trkpt>
      <trkpt lat="44.61893" lon="2.17625">
        <ele>384.66</ele>
        <time>2018-04-30T06:43:55Z</time>
      </trkpt>
      <trkpt lat="44.61904" lon="2.17609">
        <ele>383.7</ele>
        <time>2018-04-30T06:44:12Z</time>
      </trkpt>
      <trkpt lat="44.61913" lon="2.17604">
        <ele>383.7</ele>
        <time>2018-04-30T06:44:22Z</time>
      </trkpt>
      <trkpt lat="44.61929" lon="2.17581">
        <ele>384.18</ele>
        <time>2018-04-30T06:44:39Z</time>
      </trkpt>
      <trkpt lat="44.61942" lon="2.17557">
        <ele>384.66</ele>
        <time>2018-04-30T06:44:56Z</time>
      </trkpt>
      <trkpt lat="44.61956" lon="2.17532">
        <ele>384.18</ele>
        <time>2018-04-30T06:45:14Z</time>
      </trkpt>
      <trkpt lat="44.61968" lon="2.17504">
        <ele>382.26</ele>
        <time>2018-04-30T06:45:32Z</time>
      </trkpt>
      <trkpt lat="44.6198" lon="2.17476">
        <ele>378.9</ele>
        <time>2018-04-30T06:45:50Z</time>
      </trkpt>
      <trkpt lat="44.61993" lon="2.17448">
        <ele>376.01</ele>
        <time>2018-04-30T06:46:09Z</time>
      </trkpt>
      <trkpt lat="44.61997" lon="2.17422">
        <ele>375.05</ele>
        <time>2018-04-30T06:46:24Z</time>
      </trkpt>
      <trkpt lat="44.61996" lon="2.17392">
        <ele>374.09</ele>
        <time>2018-04-30T06:46:42Z</time>
      </trkpt>
      <trkpt lat="44.61986" lon="2.1736">
        <ele>373.61</ele>
        <time>2018-04-30T06:47:01Z</time>
      </trkpt>
      <trkpt lat="44.61976" lon="2.17326">
        <ele>375.05</ele>
        <time>2018-04-30T06:47:19Z</time>
      </trkpt>
      <trkpt lat="44.61967" lon="2.173">
        <ele>375.53</ele>
        <time>2018-04-30T06:47:37Z</time>
      </trkpt>
      <trkpt lat="44.61955" lon="2.17265">
        <ele>376.49</ele>
        <time>2018-04-30T06:47:57Z</time>
      </trkpt>
      <trkpt lat="44.61944" lon="2.17233">
        <ele>376.49</ele>
        <time>2018-04-30T06:48:16Z</time>
      </trkpt>
      <trkpt lat="44.61934" lon="2.17197">
        <ele>377.94</ele>
        <time>2018-04-30T06:48:38Z</time>
      </trkpt>
      <trkpt lat="44.61924" lon="2.1717">
        <ele>374.09</ele>
        <time>2018-04-30T06:48:59Z</time>
      </trkpt>
      <trkpt lat="44.61918" lon="2.17135">
        <ele>370.73</ele>
        <time>2018-04-30T06:49:15Z</time>
      </trkpt>
      <trkpt lat="44.61914" lon="2.17102">
        <ele>367.84</ele>
        <time>2018-04-30T06:49:32Z</time>
      </trkpt>
      <trkpt lat="44.61913" lon="2.17072">
        <ele>367.36</ele>
        <time>2018-04-30T06:49:51Z</time>
      </trkpt>
      <trkpt lat="44.61914" lon="2.17054">
        <ele>366.88</ele>
        <time>2018-04-30T06:50:05Z</time>
      </trkpt>
      <trkpt lat="44.61911" lon="2.17048">
        <ele>364.96</ele>
        <time>2018-04-30T06:50:33Z</time>
      </trkpt>
      <trkpt lat="44.61911" lon="2.17044">
        <ele>362.55</ele>
        <time>2018-04-30T06:50:56Z</time>
      </trkpt>
      <trkpt lat="44.61911" lon="2.17042">
        <ele>356.79</ele>
        <time>2018-04-30T06:51:21Z</time>
      </trkpt>
      <trkpt lat="44.61911" lon="2.17041">
        <ele>353.42</ele>
        <time>2018-04-30T06:51:49Z</time>
      </trkpt>
      <trkpt lat="44.6191" lon="2.17036">
        <ele>351.5</ele>
        <time>2018-04-30T06:52:11Z</time>
      </trkpt>
      <trkpt lat="44.61913" lon="2.1701">
        <ele>350.54</ele>
        <time>2018-04-30T06:52:27Z</time>
      </trkpt>
      <trkpt lat="44.61917" lon="2.16984">
        <ele>348.62</ele>
        <time>2018-04-30T06:52:43Z</time>
      </trkpt>
      <trkpt lat="44.6192" lon="2.16955">
        <ele>349.1</ele>
        <time>2018-04-30T06:53:00Z</time>
      </trkpt>
      <trkpt lat="44.61922" lon="2.16921">
        <ele>349.1</ele>
        <time>2018-04-30T06:53:18Z</time>
      </trkpt>
      <trkpt lat="44.61925" lon="2.16894">
        <ele>350.54</ele>
        <time>2018-04-30T06:53:34Z</time>
      </trkpt>
      <trkpt lat="44.61928" lon="2.16865">
        <ele>350.06</ele>
        <time>2018-04-30T06:53:49Z</time>
      </trkpt>
      <trkpt lat="44.61921" lon="2.16857">
        <ele>347.65</ele>
        <time>2018-04-30T06:54:07Z</time>
      </trkpt>
      <trkpt lat="44.61917" lon="2.16855">
        <ele>347.17</ele>
        <time>2018-04-30T06:54:11Z</time>
      </trkpt>
      <trkpt lat="44.61896" lon="2.16848">
        <ele>344.29</ele>
        <time>2018-04-30T06:54:28Z</time>
      </trkpt>
      <trkpt lat="44.61867" lon="2.16835">
        <ele>342.85</ele>
        <time>2018-04-30T06:54:47Z</time>
      </trkpt>
      <trkpt lat="44.61849" lon="2.16834">
        <ele>339</ele>
        <time>2018-04-30T06:55:01Z</time>
      </trkpt>
      <trkpt lat="44.61825" lon="2.16823">
        <ele>336.6</ele>
        <time>2018-04-30T06:55:19Z</time>
      </trkpt>
      <trkpt lat="44.61798" lon="2.1682">
        <ele>332.27</ele>
        <time>2018-04-30T06:55:39Z</time>
      </trkpt>
      <trkpt lat="44.61772" lon="2.1682">
        <ele>330.35</ele>
        <time>2018-04-30T06:55:58Z</time>
      </trkpt>
      <trkpt lat="44.61771" lon="2.16821">
        <ele>330.35</ele>
        <time>2018-04-30T06:55:59Z</time>
      </trkpt>
      <trkpt lat="44.61743" lon="2.16827">
        <ele>329.39</ele>
        <time>2018-04-30T06:56:19Z</time>
      </trkpt>
      <trkpt lat="44.61719" lon="2.16844">
        <ele>327.47</ele>
        <time>2018-04-30T06:56:38Z</time>
      </trkpt>
      <trkpt lat="44.61697" lon="2.16855">
        <ele>325.54</ele>
        <time>2018-04-30T06:56:55Z</time>
      </trkpt>
      <trkpt lat="44.61687" lon="2.16842">
        <ele>326.5</ele>
        <time>2018-04-30T06:57:12Z</time>
      </trkpt>
      <trkpt lat="44.61686" lon="2.16813">
        <ele>322.18</ele>
        <time>2018-04-30T06:57:29Z</time>
      </trkpt>
      <trkpt lat="44.61686" lon="2.16783">
        <ele>317.37</ele>
        <time>2018-04-30T06:57:46Z</time>
      </trkpt>
      <trkpt lat="44.61686" lon="2.16751">
        <ele>311.6</ele>
        <time>2018-04-30T06:58:06Z</time>
      </trkpt>
      <trkpt lat="44.61678" lon="2.16718">
        <ele>305.84</ele>
        <time>2018-04-30T06:58:22Z</time>
      </trkpt>
      <trkpt lat="44.61673" lon="2.16708">
        <ele>303.43</ele>
        <time>2018-04-30T06:58:28Z</time>
      </trkpt>
      <trkpt lat="44.61671" lon="2.16689">
        <ele>305.84</ele>
        <time>2018-04-30T06:58:42Z</time>
      </trkpt>
      <trkpt lat="44.61669" lon="2.16663">
        <ele>306.32</ele>
        <time>2018-04-30T06:59:03Z</time>
      </trkpt>
      <trkpt lat="44.61666" lon="2.16642">
        <ele>304.88</ele>
        <time>2018-04-30T06:59:19Z</time>
      </trkpt>
      <trkpt lat="44.61661" lon="2.16619">
        <ele>303.91</ele>
        <time>2018-04-30T06:59:36Z</time>
      </trkpt>
      <trkpt lat="44.61656" lon="2.16598">
        <ele>303.91</ele>
        <time>2018-04-30T06:59:56Z</time>
      </trkpt>
      <trkpt lat="44.61643" lon="2.16568">
        <ele>301.51</ele>
        <time>2018-04-30T07:00:16Z</time>
      </trkpt>
      <trkpt lat="44.61627" lon="2.16537">
        <ele>297.67</ele>
        <time>2018-04-30T07:00:36Z</time>
      </trkpt>
      <trkpt lat="44.61614" lon="2.16514">
        <ele>292.86</ele>
        <time>2018-04-30T07:00:58Z</time>
      </trkpt>
      <trkpt lat="44.61621" lon="2.16481">
        <ele>289.01</ele>
        <time>2018-04-30T07:01:15Z</time>
      </trkpt>
      <trkpt lat="44.61606" lon="2.16445">
        <ele>285.17</ele>
        <time>2018-04-30T07:01:33Z</time>
      </trkpt>
      <trkpt lat="44.61589" lon="2.16401">
        <ele>281.32</ele>
        <time>2018-04-30T07:01:48Z</time>
      </trkpt>
      <trkpt lat="44.61583" lon="2.16401">
        <ele>280.36</ele>
        <time>2018-04-30T07:01:53Z</time>
      </trkpt>
      <trkpt lat="44.61564" lon="2.16402">
        <ele>276.04</ele>
        <time>2018-04-30T07:02:07Z</time>
      </trkpt>
      <trkpt lat="44.61544" lon="2.16396">
        <ele>277.96</ele>
        <time>2018-04-30T07:02:24Z</time>
      </trkpt>
      <trkpt lat="44.61522" lon="2.16395">
        <ele>277</ele>
        <time>2018-04-30T07:02:43Z</time>
      </trkpt>
      <trkpt lat="44.61495" lon="2.16396">
        <ele>277</ele>
        <time>2018-04-30T07:03:03Z</time>
      </trkpt>
      <trkpt lat="44.61472" lon="2.16398">
        <ele>278.92</ele>
        <time>2018-04-30T07:03:23Z</time>
      </trkpt>
      <trkpt lat="44.61446" lon="2.16409">
        <ele>279.4</ele>
        <time>2018-04-30T07:03:44Z</time>
      </trkpt>
      <trkpt lat="44.61425" lon="2.16423">
        <ele>278.92</ele>
        <time>2018-04-30T07:04:03Z</time>
      </trkpt>
      <trkpt lat="44.61401" lon="2.16437">
        <ele>280.84</ele>
        <time>2018-04-30T07:04:22Z</time>
      </trkpt>
      <trkpt lat="44.61395" lon="2.16425">
        <ele>278.44</ele>
        <time>2018-04-30T07:04:33Z</time>
      </trkpt>
      <trkpt lat="44.61389" lon="2.16401">
        <ele>274.59</ele>
        <time>2018-04-30T07:04:49Z</time>
      </trkpt>
      <trkpt lat="44.61376" lon="2.16391">
        <ele>273.63</ele>
        <time>2018-04-30T07:05:05Z</time>
      </trkpt>
      <trkpt lat="44.6139" lon="2.16406">
        <ele>274.11</ele>
        <time>2018-04-30T07:05:41Z</time>
      </trkpt>
      <trkpt lat="44.61384" lon="2.16373">
        <ele>274.11</ele>
        <time>2018-04-30T07:06:00Z</time>
      </trkpt>
      <trkpt lat="44.61389" lon="2.1635">
        <ele>273.63</ele>
        <time>2018-04-30T07:06:13Z</time>
      </trkpt>
      <trkpt lat="44.61395" lon="2.1631">
        <ele>276.04</ele>
        <time>2018-04-30T07:06:32Z</time>
      </trkpt>
      <trkpt lat="44.614" lon="2.16275">
        <ele>276.52</ele>
        <time>2018-04-30T07:06:49Z</time>
      </trkpt>
      <trkpt lat="44.61414" lon="2.16263">
        <ele>276.04</ele>
        <time>2018-04-30T07:07:07Z</time>
      </trkpt>
      <trkpt lat="44.61423" lon="2.16265">
        <ele>275.56</ele>
        <time>2018-04-30T07:07:13Z</time>
      </trkpt>
      <trkpt lat="44.61448" lon="2.16264">
        <ele>273.63</ele>
        <time>2018-04-30T07:07:36Z</time>
      </trkpt>
      <trkpt lat="44.61473" lon="2.16264">
        <ele>273.15</ele>
        <time>2018-04-30T07:08:01Z</time>
      </trkpt>
      <trkpt lat="44.61495" lon="2.16258">
        <ele>277.48</ele>
        <time>2018-04-30T07:08:21Z</time>
      </trkpt>
      <trkpt lat="44.61499" lon="2.16255">
        <ele>277.96</ele>
        <time>2018-04-30T07:08:25Z</time>
      </trkpt>
      <trkpt lat="44.61513" lon="2.16238">
        <ele>281.8</ele>
        <time>2018-04-30T07:08:44Z</time>
      </trkpt>
      <trkpt lat="44.61528" lon="2.16218">
        <ele>285.17</ele>
        <time>2018-04-30T07:09:02Z</time>
      </trkpt>
      <trkpt lat="44.61548" lon="2.16199">
        <ele>284.21</ele>
        <time>2018-04-30T07:09:21Z</time>
      </trkpt>
      <trkpt lat="44.61564" lon="2.16179">
        <ele>282.28</ele>
        <time>2018-04-30T07:09:39Z</time>
      </trkpt>
      <trkpt lat="44.61583" lon="2.16164">
        <ele>280.36</ele>
        <time>2018-04-30T07:09:56Z</time>
      </trkpt>
      <trkpt lat="44.61598" lon="2.16158">
        <ele>283.25</ele>
        <time>2018-04-30T07:10:14Z</time>
      </trkpt>
      <trkpt lat="44.6161" lon="2.16191">
        <ele>284.69</ele>
        <time>2018-04-30T07:10:34Z</time>
      </trkpt>
      <trkpt lat="44.61626" lon="2.16214">
        <ele>286.13</ele>
        <time>2018-04-30T07:10:55Z</time>
      </trkpt>
      <trkpt lat="44.61637" lon="2.16227">
        <ele>283.25</ele>
        <time>2018-04-30T07:11:13Z</time>
      </trkpt>
      <trkpt lat="44.6166" lon="2.16215">
        <ele>282.77</ele>
        <time>2018-04-30T07:11:29Z</time>
      </trkpt>
      <trkpt lat="44.61679" lon="2.16197">
        <ele>278.92</ele>
        <time>2018-04-30T07:11:49Z</time>
      </trkpt>
      <trkpt lat="44.61696" lon="2.16183">
        <ele>275.07</ele>
        <time>2018-04-30T07:12:10Z</time>
      </trkpt>
      <trkpt lat="44.61723" lon="2.16165">
        <ele>271.23</ele>
        <time>2018-04-30T07:12:32Z</time>
      </trkpt>
      <trkpt lat="44.61741" lon="2.1615">
        <ele>268.83</ele>
        <time>2018-04-30T07:12:52Z</time>
      </trkpt>
      <trkpt lat="44.61763" lon="2.16133">
        <ele>267.86</ele>
        <time>2018-04-30T07:13:12Z</time>
      </trkpt>
      <trkpt lat="44.61776" lon="2.16117">
        <ele>267.38</ele>
        <time>2018-04-30T07:13:28Z</time>
      </trkpt>
      <trkpt lat="44.6179" lon="2.16099">
        <ele>266.9</ele>
        <time>2018-04-30T07:13:44Z</time>
      </trkpt>
      <trkpt lat="44.61803" lon="2.16069">
        <ele>271.23</ele>
        <time>2018-04-30T07:14:03Z</time>
      </trkpt>
      <trkpt lat="44.61823" lon="2.1605">
        <ele>272.67</ele>
        <time>2018-04-30T07:14:23Z</time>
      </trkpt>
      <trkpt lat="44.61838" lon="2.16041">
        <ele>271.71</ele>
        <time>2018-04-30T07:14:41Z</time>
      </trkpt>
      <trkpt lat="44.61859" lon="2.16017">
        <ele>274.11</ele>
        <time>2018-04-30T07:15:00Z</time>
      </trkpt>
      <trkpt lat="44.61872" lon="2.16006">
        <ele>274.59</ele>
        <time>2018-04-30T07:15:17Z</time>
      </trkpt>
      <trkpt lat="44.61895" lon="2.15988">
        <ele>274.59</ele>
        <time>2018-04-30T07:15:36Z</time>
      </trkpt>
      <trkpt lat="44.61912" lon="2.15968">
        <ele>275.56</ele>
        <time>2018-04-30T07:15:54Z</time>
      </trkpt>
      <trkpt lat="44.61935" lon="2.15949">
        <ele>277</ele>
        <time>2018-04-30T07:16:17Z</time>
      </trkpt>
      <trkpt lat="44.61952" lon="2.15936">
        <ele>275.56</ele>
        <time>2018-04-30T07:16:34Z</time>
      </trkpt>
      <trkpt lat="44.61968" lon="2.15921">
        <ele>276.04</ele>
        <time>2018-04-30T07:16:49Z</time>
      </trkpt>
      <trkpt lat="44.61971" lon="2.15912">
        <ele>274.59</ele>
        <time>2018-04-30T07:16:55Z</time>
      </trkpt>
      <trkpt lat="44.61971" lon="2.1591">
        <ele>274.59</ele>
        <time>2018-04-30T07:16:56Z</time>
      </trkpt>
      <trkpt lat="44.61972" lon="2.15908">
        <ele>274.59</ele>
        <time>2018-04-30T07:16:57Z</time>
      </trkpt>
      <trkpt lat="44.6198" lon="2.15877">
        <ele>276.52</ele>
        <time>2018-04-30T07:17:17Z</time>
      </trkpt>
      <trkpt lat="44.61989" lon="2.15847">
        <ele>273.15</ele>
        <time>2018-04-30T07:17:37Z</time>
      </trkpt>
      <trkpt lat="44.61998" lon="2.15815">
        <ele>271.71</ele>
        <time>2018-04-30T07:17:56Z</time>
      </trkpt>
      <trkpt lat="44.62004" lon="2.15782">
        <ele>270.27</ele>
        <time>2018-04-30T07:18:16Z</time>
      </trkpt>
      <trkpt lat="44.62009" lon="2.15751">
        <ele>269.31</ele>
        <time>2018-04-30T07:18:37Z</time>
      </trkpt>
      <trkpt lat="44.62016" lon="2.15718">
        <ele>267.86</ele>
        <time>2018-04-30T07:18:59Z</time>
      </trkpt>
      <trkpt lat="44.62022" lon="2.1569">
        <ele>265.94</ele>
        <time>2018-04-30T07:19:22Z</time>
      </trkpt>
      <trkpt lat="44.62025" lon="2.15658">
        <ele>262.1</ele>
        <time>2018-04-30T07:19:43Z</time>
      </trkpt>
      <trkpt lat="44.62029" lon="2.15635">
        <ele>260.65</ele>
        <time>2018-04-30T07:19:59Z</time>
      </trkpt>
      <trkpt lat="44.62027" lon="2.15606">
        <ele>261.14</ele>
        <time>2018-04-30T07:20:19Z</time>
      </trkpt>
      <trkpt lat="44.62026" lon="2.15569">
        <ele>264.5</ele>
        <time>2018-04-30T07:20:38Z</time>
      </trkpt>
      <trkpt lat="44.62025" lon="2.15527">
        <ele>269.79</ele>
        <time>2018-04-30T07:20:58Z</time>
      </trkpt>
      <trkpt lat="44.62024" lon="2.15491">
        <ele>274.11</ele>
        <time>2018-04-30T07:21:17Z</time>
      </trkpt>
      <trkpt lat="44.62021" lon="2.15456">
        <ele>275.56</ele>
        <time>2018-04-30T07:21:36Z</time>
      </trkpt>
      <trkpt lat="44.62022" lon="2.15417">
        <ele>275.56</ele>
        <time>2018-04-30T07:21:58Z</time>
      </trkpt>
      <trkpt lat="44.62019" lon="2.15381">
        <ele>276.04</ele>
        <time>2018-04-30T07:22:18Z</time>
      </trkpt>
      <trkpt lat="44.62018" lon="2.15347">
        <ele>275.07</ele>
        <time>2018-04-30T07:22:37Z</time>
      </trkpt>
      <trkpt lat="44.62019" lon="2.15315">
        <ele>273.63</ele>
        <time>2018-04-30T07:22:56Z</time>
      </trkpt>
      <trkpt lat="44.62028" lon="2.15286">
        <ele>274.59</ele>
        <time>2018-04-30T07:23:13Z</time>
      </trkpt>
      <trkpt lat="44.62044" lon="2.1526">
        <ele>275.56</ele>
        <time>2018-04-30T07:23:33Z</time>
      </trkpt>
      <trkpt lat="44.6206" lon="2.15234">
        <ele>275.07</ele>
        <time>2018-04-30T07:23:54Z</time>
      </trkpt>
      <trkpt lat="44.62076" lon="2.15203">
        <ele>274.59</ele>
        <time>2018-04-30T07:24:16Z</time>
      </trkpt>
      <trkpt lat="44.62091" lon="2.15177">
        <ele>277.96</ele>
        <time>2018-04-30T07:24:34Z</time>
      </trkpt>
      <trkpt lat="44.62104" lon="2.15147">
        <ele>281.32</ele>
        <time>2018-04-30T07:24:55Z</time>
      </trkpt>
      <trkpt lat="44.62119" lon="2.1512">
        <ele>277.48</ele>
        <time>2018-04-30T07:25:11Z</time>
      </trkpt>
      <trkpt lat="44.62128" lon="2.15091">
        <ele>277.96</ele>
        <time>2018-04-30T07:25:29Z</time>
      </trkpt>
      <trkpt lat="44.62133" lon="2.15053">
        <ele>278.44</ele>
        <time>2018-04-30T07:25:49Z</time>
      </trkpt>
      <trkpt lat="44.62135" lon="2.15026">
        <ele>277.96</ele>
        <time>2018-04-30T07:26:06Z</time>
      </trkpt>
      <trkpt lat="44.62141" lon="2.15003">
        <ele>277.96</ele>
        <time>2018-04-30T07:26:22Z</time>
      </trkpt>
      <trkpt lat="44.62149" lon="2.14978">
        <ele>277</ele>
        <time>2018-04-30T07:26:39Z</time>
      </trkpt>
      <trkpt lat="44.62157" lon="2.14952">
        <ele>276.04</ele>
        <time>2018-04-30T07:26:57Z</time>
      </trkpt>
      <trkpt lat="44.62159" lon="2.14941">
        <ele>275.56</ele>
        <time>2018-04-30T07:27:03Z</time>
      </trkpt>
      <trkpt lat="44.62164" lon="2.14905">
        <ele>275.56</ele>
        <time>2018-04-30T07:27:24Z</time>
      </trkpt>
      <trkpt lat="44.62174" lon="2.14871">
        <ele>275.56</ele>
        <time>2018-04-30T07:27:47Z</time>
      </trkpt>
      <trkpt lat="44.62181" lon="2.14848">
        <ele>275.07</ele>
        <time>2018-04-30T07:28:07Z</time>
      </trkpt>
      <trkpt lat="44.62187" lon="2.14812">
        <ele>270.27</ele>
        <time>2018-04-30T07:28:24Z</time>
      </trkpt>
      <trkpt lat="44.62195" lon="2.14773">
        <ele>264.02</ele>
        <time>2018-04-30T07:28:42Z</time>
      </trkpt>
      <trkpt lat="44.622" lon="2.14768">
        <ele>264.5</ele>
        <time>2018-04-30T07:28:49Z</time>
      </trkpt>
      <trkpt lat="44.6222" lon="2.14793">
        <ele>261.62</ele>
        <time>2018-04-30T07:29:13Z</time>
      </trkpt>
      <trkpt lat="44.62234" lon="2.14814">
        <ele>262.1</ele>
        <time>2018-04-30T07:29:34Z</time>
      </trkpt>
      <trkpt lat="44.6226" lon="2.14815">
        <ele>263.54</ele>
        <time>2018-04-30T07:29:58Z</time>
      </trkpt>
      <trkpt lat="44.62285" lon="2.14822">
        <ele>262.1</ele>
        <time>2018-04-30T07:30:23Z</time>
      </trkpt>
      <trkpt lat="44.62306" lon="2.14839">
        <ele>260.65</ele>
        <time>2018-04-30T07:30:43Z</time>
      </trkpt>
      <trkpt lat="44.6232" lon="2.14855">
        <ele>260.17</ele>
        <time>2018-04-30T07:31:02Z</time>
      </trkpt>
      <trkpt lat="44.62348" lon="2.14872">
        <ele>259.21</ele>
        <time>2018-04-30T07:31:22Z</time>
      </trkpt>
      <trkpt lat="44.62365" lon="2.14897">
        <ele>258.73</ele>
        <time>2018-04-30T07:31:43Z</time>
      </trkpt>
      <trkpt lat="44.62386" lon="2.14913">
        <ele>261.14</ele>
        <time>2018-04-30T07:32:03Z</time>
      </trkpt>
      <trkpt lat="44.62411" lon="2.14931">
        <ele>263.06</ele>
        <time>2018-04-30T07:32:25Z</time>
      </trkpt>
      <trkpt lat="44.62428" lon="2.14946">
        <ele>264.02</ele>
        <time>2018-04-30T07:32:44Z</time>
      </trkpt>
      <trkpt lat="44.62461" lon="2.14955">
        <ele>265.46</ele>
        <time>2018-04-30T07:33:08Z</time>
      </trkpt>
      <trkpt lat="44.62489" lon="2.14964">
        <ele>270.27</ele>
        <time>2018-04-30T07:33:31Z</time>
      </trkpt>
      <trkpt lat="44.62515" lon="2.14971">
        <ele>272.19</ele>
        <time>2018-04-30T07:33:52Z</time>
      </trkpt>
      <trkpt lat="44.62538" lon="2.14979">
        <ele>272.67</ele>
        <time>2018-04-30T07:34:14Z</time>
      </trkpt>
      <trkpt lat="44.62556" lon="2.14991">
        <ele>270.75</ele>
        <time>2018-04-30T07:34:34Z</time>
      </trkpt>
      <trkpt lat="44.62577" lon="2.14996">
        <ele>271.71</ele>
        <time>2018-04-30T07:34:52Z</time>
      </trkpt>
      <trkpt lat="44.62581" lon="2.14993">
        <ele>277.48</ele>
        <time>2018-04-30T07:35:03Z</time>
      </trkpt>
      <trkpt lat="44.62581" lon="2.14996">
        <ele>278.92</ele>
        <time>2018-04-30T07:35:27Z</time>
      </trkpt>
      <trkpt lat="44.6258" lon="2.14995">
        <ele>277.48</ele>
        <time>2018-04-30T07:35:57Z</time>
      </trkpt>
      <trkpt lat="44.62581" lon="2.14992">
        <ele>277.96</ele>
        <time>2018-04-30T07:36:22Z</time>
      </trkpt>
      <trkpt lat="44.6258" lon="2.14987">
        <ele>278.92</ele>
        <time>2018-04-30T07:36:27Z</time>
      </trkpt>
      <trkpt lat="44.6258" lon="2.14985">
        <ele>278.92</ele>
        <time>2018-04-30T07:36:28Z</time>
      </trkpt>
      <trkpt lat="44.62578" lon="2.14953">
        <ele>282.77</ele>
        <time>2018-04-30T07:36:49Z</time>
      </trkpt>
      <trkpt lat="44.62572" lon="2.14926">
        <ele>281.8</ele>
        <time>2018-04-30T07:37:04Z</time>
      </trkpt>
      <trkpt lat="44.62571" lon="2.14925">
        <ele>281.8</ele>
        <time>2018-04-30T07:37:05Z</time>
      </trkpt>
      <trkpt lat="44.62571" lon="2.14923">
        <ele>281.32</ele>
        <time>2018-04-30T07:37:06Z</time>
      </trkpt>
      <trkpt lat="44.6257" lon="2.14921">
        <ele>281.32</ele>
        <time>2018-04-30T07:37:07Z</time>
      </trkpt>
      <trkpt lat="44.6257" lon="2.1492">
        <ele>280.84</ele>
        <time>2018-04-30T07:37:08Z</time>
      </trkpt>
      <trkpt lat="44.62567" lon="2.149">
        <ele>277.96</ele>
        <time>2018-04-30T07:37:19Z</time>
      </trkpt>
      <trkpt lat="44.62566" lon="2.14893">
        <ele>276.04</ele>
        <time>2018-04-30T07:37:24Z</time>
      </trkpt>
      <trkpt lat="44.62566" lon="2.14891">
        <ele>276.04</ele>
        <time>2018-04-30T07:37:25Z</time>
      </trkpt>
      <trkpt lat="44.62566" lon="2.14889">
        <ele>275.56</ele>
        <time>2018-04-30T07:37:26Z</time>
      </trkpt>
      <trkpt lat="44.62566" lon="2.14887">
        <ele>275.07</ele>
        <time>2018-04-30T07:37:27Z</time>
      </trkpt>
      <trkpt lat="44.62565" lon="2.14885">
        <ele>275.07</ele>
        <time>2018-04-30T07:37:28Z</time>
      </trkpt>
      <trkpt lat="44.62565" lon="2.14883">
        <ele>274.59</ele>
        <time>2018-04-30T07:37:29Z</time>
      </trkpt>
      <trkpt lat="44.62564" lon="2.1488">
        <ele>274.59</ele>
        <time>2018-04-30T07:37:30Z</time>
      </trkpt>
      <trkpt lat="44.62564" lon="2.14878">
        <ele>274.11</ele>
        <time>2018-04-30T07:37:31Z</time>
      </trkpt>
      <trkpt lat="44.62564" lon="2.14875">
        <ele>274.11</ele>
        <time>2018-04-30T07:37:32Z</time>
      </trkpt>
      <trkpt lat="44.62564" lon="2.14873">
        <ele>274.11</ele>
        <time>2018-04-30T07:37:33Z</time>
      </trkpt>
      <trkpt lat="44.62563" lon="2.14847">
        <ele>272.67</ele>
        <time>2018-04-30T07:37:49Z</time>
      </trkpt>
      <trkpt lat="44.62569" lon="2.1482">
        <ele>271.71</ele>
        <time>2018-04-30T07:38:03Z</time>
      </trkpt>
      <trkpt lat="44.62576" lon="2.14803">
        <ele>267.86</ele>
        <time>2018-04-30T07:38:15Z</time>
      </trkpt>
      <trkpt lat="44.62581" lon="2.14793">
        <ele>264.98</ele>
        <time>2018-04-30T07:38:21Z</time>
      </trkpt>
      <trkpt lat="44.62582" lon="2.14791">
        <ele>264.5</ele>
        <time>2018-04-30T07:38:22Z</time>
      </trkpt>
      <trkpt lat="44.62594" lon="2.14754">
        <ele>255.85</ele>
        <time>2018-04-30T07:38:44Z</time>
      </trkpt>
      <trkpt lat="44.62598" lon="2.1472">
        <ele>252.96</ele>
        <time>2018-04-30T07:39:02Z</time>
      </trkpt>
      <trkpt lat="44.62598" lon="2.14687">
        <ele>247.68</ele>
        <time>2018-04-30T07:39:20Z</time>
      </trkpt>
      <trkpt lat="44.62601" lon="2.14658">
        <ele>241.91</ele>
        <time>2018-04-30T07:39:40Z</time>
      </trkpt>
      <trkpt lat="44.62603" lon="2.14607">
        <ele>241.91</ele>
        <time>2018-04-30T07:40:00Z</time>
      </trkpt>
      <trkpt lat="44.62608" lon="2.14584">
        <ele>240.95</ele>
        <time>2018-04-30T07:40:20Z</time>
      </trkpt>
      <trkpt lat="44.62607" lon="2.1455">
        <ele>239.02</ele>
        <time>2018-04-30T07:40:37Z</time>
      </trkpt>
      <trkpt lat="44.62611" lon="2.14517">
        <ele>239.99</ele>
        <time>2018-04-30T07:40:56Z</time>
      </trkpt>
      <trkpt lat="44.6261" lon="2.14485">
        <ele>239.99</ele>
        <time>2018-04-30T07:41:15Z</time>
      </trkpt>
      <trkpt lat="44.62615" lon="2.14448">
        <ele>233.74</ele>
        <time>2018-04-30T07:41:36Z</time>
      </trkpt>
      <trkpt lat="44.62623" lon="2.14415">
        <ele>233.26</ele>
        <time>2018-04-30T07:41:56Z</time>
      </trkpt>
      <trkpt lat="44.62626" lon="2.14381">
        <ele>235.18</ele>
        <time>2018-04-30T07:42:16Z</time>
      </trkpt>
      <trkpt lat="44.62619" lon="2.14349">
        <ele>239.51</ele>
        <time>2018-04-30T07:42:34Z</time>
      </trkpt>
      <trkpt lat="44.62612" lon="2.14322">
        <ele>242.87</ele>
        <time>2018-04-30T07:42:49Z</time>
      </trkpt>
      <trkpt lat="44.62604" lon="2.14293">
        <ele>242.87</ele>
        <time>2018-04-30T07:43:09Z</time>
      </trkpt>
      <trkpt lat="44.62599" lon="2.14262">
        <ele>241.43</ele>
        <time>2018-04-30T07:43:29Z</time>
      </trkpt>
      <trkpt lat="44.62602" lon="2.14257">
        <ele>238.54</ele>
        <time>2018-04-30T07:43:53Z</time>
      </trkpt>
      <trkpt lat="44.62605" lon="2.14256">
        <ele>234.22</ele>
        <time>2018-04-30T07:44:17Z</time>
      </trkpt>
      <trkpt lat="44.62601" lon="2.14262">
        <ele>241.91</ele>
        <time>2018-04-30T07:44:33Z</time>
      </trkpt>
      <trkpt lat="44.62577" lon="2.14274">
        <ele>260.65</ele>
        <time>2018-04-30T07:46:01Z</time>
      </trkpt>
      <trkpt lat="44.62593" lon="2.14258">
        <ele>258.25</ele>
        <time>2018-04-30T07:46:34Z</time>
      </trkpt>
      <trkpt lat="44.62595" lon="2.1426">
        <ele>253.93</ele>
        <time>2018-04-30T07:47:06Z</time>
      </trkpt>
      <trkpt lat="44.62592" lon="2.14255">
        <ele>255.37</ele>
        <time>2018-04-30T07:47:49Z</time>
      </trkpt>
      <trkpt lat="44.6259" lon="2.14252">
        <ele>261.62</ele>
        <time>2018-04-30T07:48:32Z</time>
      </trkpt>
      <trkpt lat="44.6259" lon="2.14265">
        <ele>256.33</ele>
        <time>2018-04-30T07:48:48Z</time>
      </trkpt>
      <trkpt lat="44.62588" lon="2.14264">
        <ele>252.96</ele>
        <time>2018-04-30T07:49:02Z</time>
      </trkpt>
      <trkpt lat="44.62591" lon="2.14262">
        <ele>247.68</ele>
        <time>2018-04-30T07:49:34Z</time>
      </trkpt>
      <trkpt lat="44.62599" lon="2.14263">
        <ele>241.43</ele>
        <time>2018-04-30T07:50:02Z</time>
      </trkpt>
      <trkpt lat="44.62602" lon="2.14256">
        <ele>240.47</ele>
        <time>2018-04-30T07:50:22Z</time>
      </trkpt>
      <trkpt lat="44.626" lon="2.14263">
        <ele>237.58</ele>
        <time>2018-04-30T07:50:46Z</time>
      </trkpt>
      <trkpt lat="44.62597" lon="2.14263">
        <ele>239.51</ele>
        <time>2018-04-30T07:51:12Z</time>
      </trkpt>
      <trkpt lat="44.62597" lon="2.14261">
        <ele>239.51</ele>
        <time>2018-04-30T07:51:40Z</time>
      </trkpt>
      <trkpt lat="44.62596" lon="2.14256">
        <ele>242.39</ele>
        <time>2018-04-30T07:52:03Z</time>
      </trkpt>
      <trkpt lat="44.62601" lon="2.14261">
        <ele>232.78</ele>
        <time>2018-04-30T07:52:40Z</time>
      </trkpt>
      <trkpt lat="44.62601" lon="2.14261">
        <ele>235.66</ele>
        <time>2018-04-30T07:53:18Z</time>
      </trkpt>
      <trkpt lat="44.62599" lon="2.14266">
        <ele>239.51</ele>
        <time>2018-04-30T07:53:39Z</time>
      </trkpt>
      <trkpt lat="44.62596" lon="2.1427">
        <ele>242.39</ele>
        <time>2018-04-30T07:54:04Z</time>
      </trkpt>
      <trkpt lat="44.62596" lon="2.14268">
        <ele>245.75</ele>
        <time>2018-04-30T07:54:27Z</time>
      </trkpt>
      <trkpt lat="44.626" lon="2.14261">
        <ele>244.79</ele>
        <time>2018-04-30T07:54:56Z</time>
      </trkpt>
      <trkpt lat="44.62597" lon="2.14261">
        <ele>244.31</ele>
        <time>2018-04-30T07:55:26Z</time>
      </trkpt>
      <trkpt lat="44.62602" lon="2.14265">
        <ele>241.91</ele>
        <time>2018-04-30T07:55:54Z</time>
      </trkpt>
      <trkpt lat="44.62597" lon="2.14263">
        <ele>242.39</ele>
        <time>2018-04-30T07:56:21Z</time>
      </trkpt>
      <trkpt lat="44.62592" lon="2.1426">
        <ele>241.91</ele>
        <time>2018-04-30T07:56:44Z</time>
      </trkpt>
      <trkpt lat="44.62593" lon="2.14259">
        <ele>242.39</ele>
        <time>2018-04-30T07:57:00Z</time>
      </trkpt>
      <trkpt lat="44.62595" lon="2.14265">
        <ele>243.35</ele>
        <time>2018-04-30T07:57:17Z</time>
      </trkpt>
      <trkpt lat="44.62589" lon="2.14253">
        <ele>243.83</ele>
        <time>2018-04-30T07:57:42Z</time>
      </trkpt>
      <trkpt lat="44.62579" lon="2.14233">
        <ele>242.87</ele>
        <time>2018-04-30T07:57:59Z</time>
      </trkpt>
      <trkpt lat="44.62564" lon="2.14208">
        <ele>242.39</ele>
        <time>2018-04-30T07:58:19Z</time>
      </trkpt>
      <trkpt lat="44.62552" lon="2.14184">
        <ele>240.47</ele>
        <time>2018-04-30T07:58:38Z</time>
      </trkpt>
      <trkpt lat="44.62544" lon="2.14142">
        <ele>239.99</ele>
        <time>2018-04-30T07:59:03Z</time>
      </trkpt>
      <trkpt lat="44.62546" lon="2.14114">
        <ele>235.66</ele>
        <time>2018-04-30T07:59:27Z</time>
      </trkpt>
      <trkpt lat="44.62543" lon="2.14091">
        <ele>237.58</ele>
        <time>2018-04-30T07:59:38Z</time>
      </trkpt>
      <trkpt lat="44.62533" lon="2.14056">
        <ele>242.39</ele>
        <time>2018-04-30T07:59:59Z</time>
      </trkpt>
      <trkpt lat="44.62528" lon="2.14027">
        <ele>243.35</ele>
        <time>2018-04-30T08:00:18Z</time>
      </trkpt>
      <trkpt lat="44.62528" lon="2.14016">
        <ele>243.83</ele>
        <time>2018-04-30T08:00:26Z</time>
      </trkpt>
      <trkpt lat="44.62524" lon="2.13981">
        <ele>242.87</ele>
        <time>2018-04-30T08:00:46Z</time>
      </trkpt>
      <trkpt lat="44.6252" lon="2.13954">
        <ele>244.31</ele>
        <time>2018-04-30T08:01:02Z</time>
      </trkpt>
      <trkpt lat="44.62513" lon="2.13921">
        <ele>243.83</ele>
        <time>2018-04-30T08:01:22Z</time>
      </trkpt>
      <trkpt lat="44.62502" lon="2.1389">
        <ele>241.91</ele>
        <time>2018-04-30T08:01:40Z</time>
      </trkpt>
      <trkpt lat="44.62497" lon="2.13865">
        <ele>237.58</ele>
        <time>2018-04-30T08:01:55Z</time>
      </trkpt>
      <trkpt lat="44.62489" lon="2.13829">
        <ele>230.85</ele>
        <time>2018-04-30T08:02:18Z</time>
      </trkpt>
      <trkpt lat="44.62479" lon="2.13802">
        <ele>226.05</ele>
        <time>2018-04-30T08:02:35Z</time>
      </trkpt>
      <trkpt lat="44.62468" lon="2.13771">
        <ele>224.12</ele>
        <time>2018-04-30T08:02:56Z</time>
      </trkpt>
      <trkpt lat="44.62462" lon="2.13741">
        <ele>222.2</ele>
        <time>2018-04-30T08:03:12Z</time>
      </trkpt>
      <trkpt lat="44.62458" lon="2.13712">
        <ele>221.72</ele>
        <time>2018-04-30T08:03:29Z</time>
      </trkpt>
      <trkpt lat="44.62452" lon="2.13682">
        <ele>221.24</ele>
        <time>2018-04-30T08:03:51Z</time>
      </trkpt>
      <trkpt lat="44.62437" lon="2.13653">
        <ele>220.28</ele>
        <time>2018-04-30T08:04:09Z</time>
      </trkpt>
      <trkpt lat="44.62426" lon="2.13624">
        <ele>225.09</ele>
        <time>2018-04-30T08:04:29Z</time>
      </trkpt>
      <trkpt lat="44.62403" lon="2.13607">
        <ele>227.97</ele>
        <time>2018-04-30T08:04:51Z</time>
      </trkpt>
      <trkpt lat="44.62371" lon="2.13612">
        <ele>237.1</ele>
        <time>2018-04-30T08:05:15Z</time>
      </trkpt>
      <trkpt lat="44.62343" lon="2.13614">
        <ele>240.47</ele>
        <time>2018-04-30T08:05:36Z</time>
      </trkpt>
      <trkpt lat="44.62319" lon="2.13615">
        <ele>243.83</ele>
        <time>2018-04-30T08:05:59Z</time>
      </trkpt>
      <trkpt lat="44.62292" lon="2.13619">
        <ele>247.2</ele>
        <time>2018-04-30T08:06:23Z</time>
      </trkpt>
      <trkpt lat="44.62262" lon="2.13618">
        <ele>250.08</ele>
        <time>2018-04-30T08:06:48Z</time>
      </trkpt>
      <trkpt lat="44.62231" lon="2.13617">
        <ele>252.48</ele>
        <time>2018-04-30T08:07:13Z</time>
      </trkpt>
      <trkpt lat="44.62216" lon="2.13641">
        <ele>253.93</ele>
        <time>2018-04-30T08:07:32Z</time>
      </trkpt>
      <trkpt lat="44.62213" lon="2.13648">
        <ele>254.41</ele>
        <time>2018-04-30T08:07:36Z</time>
      </trkpt>
      <trkpt lat="44.62189" lon="2.13667">
        <ele>257.77</ele>
        <time>2018-04-30T08:07:59Z</time>
      </trkpt>
      <trkpt lat="44.62166" lon="2.13668">
        <ele>258.25</ele>
        <time>2018-04-30T08:08:19Z</time>
      </trkpt>
      <trkpt lat="44.62138" lon="2.13669">
        <ele>259.21</ele>
        <time>2018-04-30T08:08:40Z</time>
      </trkpt>
      <trkpt lat="44.62113" lon="2.13667">
        <ele>258.25</ele>
        <time>2018-04-30T08:09:02Z</time>
      </trkpt>
      <trkpt lat="44.62091" lon="2.13664">
        <ele>255.85</ele>
        <time>2018-04-30T08:09:20Z</time>
      </trkpt>
      <trkpt lat="44.62068" lon="2.13671">
        <ele>256.33</ele>
        <time>2018-04-30T08:09:41Z</time>
      </trkpt>
      <trkpt lat="44.62043" lon="2.13674">
        <ele>257.77</ele>
        <time>2018-04-30T08:10:02Z</time>
      </trkpt>
      <trkpt lat="44.62008" lon="2.13676">
        <ele>261.62</ele>
        <time>2018-04-30T08:10:28Z</time>
      </trkpt>
      <trkpt lat="44.61984" lon="2.13677">
        <ele>265.94</ele>
        <time>2018-04-30T08:10:46Z</time>
      </trkpt>
      <trkpt lat="44.61962" lon="2.13675">
        <ele>265.94</ele>
        <time>2018-04-30T08:11:03Z</time>
      </trkpt>
      <trkpt lat="44.61944" lon="2.13671">
        <ele>265.46</ele>
        <time>2018-04-30T08:11:18Z</time>
      </trkpt>
      <trkpt lat="44.61926" lon="2.13663">
        <ele>265.46</ele>
        <time>2018-04-30T08:11:35Z</time>
      </trkpt>
      <trkpt lat="44.61898" lon="2.13651">
        <ele>264.98</ele>
        <time>2018-04-30T08:12:00Z</time>
      </trkpt>
      <trkpt lat="44.61876" lon="2.1364">
        <ele>264.5</ele>
        <time>2018-04-30T08:12:19Z</time>
      </trkpt>
      <trkpt lat="44.61872" lon="2.13638">
        <ele>264.5</ele>
        <time>2018-04-30T08:12:22Z</time>
      </trkpt>
      <trkpt lat="44.61856" lon="2.13615">
        <ele>263.06</ele>
        <time>2018-04-30T08:12:40Z</time>
      </trkpt>
      <trkpt lat="44.6184" lon="2.13595">
        <ele>263.06</ele>
        <time>2018-04-30T08:12:58Z</time>
      </trkpt>
      <trkpt lat="44.61823" lon="2.13577">
        <ele>263.54</ele>
        <time>2018-04-30T08:13:15Z</time>
      </trkpt>
      <trkpt lat="44.61808" lon="2.13555">
        <ele>263.54</ele>
        <time>2018-04-30T08:13:34Z</time>
      </trkpt>
      <trkpt lat="44.61793" lon="2.13533">
        <ele>264.02</ele>
        <time>2018-04-30T08:13:53Z</time>
      </trkpt>
      <trkpt lat="44.61781" lon="2.13508">
        <ele>264.5</ele>
        <time>2018-04-30T08:14:10Z</time>
      </trkpt>
      <trkpt lat="44.61775" lon="2.13482">
        <ele>265.46</ele>
        <time>2018-04-30T08:14:28Z</time>
      </trkpt>
      <trkpt lat="44.61768" lon="2.13485">
        <ele>266.42</ele>
        <time>2018-04-30T08:14:34Z</time>
      </trkpt>
      <trkpt lat="44.61742" lon="2.135">
        <ele>266.9</ele>
        <time>2018-04-30T08:14:55Z</time>
      </trkpt>
      <trkpt lat="44.61727" lon="2.13509">
        <ele>266.9</ele>
        <time>2018-04-30T08:15:11Z</time>
      </trkpt>
      <trkpt lat="44.61698" lon="2.13523">
        <ele>268.35</ele>
        <time>2018-04-30T08:15:33Z</time>
      </trkpt>
      <trkpt lat="44.61675" lon="2.13531">
        <ele>267.38</ele>
        <time>2018-04-30T08:15:52Z</time>
      </trkpt>
      <trkpt lat="44.61664" lon="2.13533">
        <ele>266.42</ele>
        <time>2018-04-30T08:16:02Z</time>
      </trkpt>
      <trkpt lat="44.61655" lon="2.13534">
        <ele>263.54</ele>
        <time>2018-04-30T08:16:20Z</time>
      </trkpt>
      <trkpt lat="44.61652" lon="2.13533">
        <ele>261.14</ele>
        <time>2018-04-30T08:16:45Z</time>
      </trkpt>
      <trkpt lat="44.61649" lon="2.13534">
        <ele>263.06</ele>
        <time>2018-04-30T08:17:11Z</time>
      </trkpt>
      <trkpt lat="44.61632" lon="2.13533">
        <ele>263.06</ele>
        <time>2018-04-30T08:17:31Z</time>
      </trkpt>
      <trkpt lat="44.61609" lon="2.1353">
        <ele>264.98</ele>
        <time>2018-04-30T08:17:50Z</time>
      </trkpt>
      <trkpt lat="44.61591" lon="2.13536">
        <ele>265.46</ele>
        <time>2018-04-30T08:18:06Z</time>
      </trkpt>
      <trkpt lat="44.61562" lon="2.13544">
        <ele>265.46</ele>
        <time>2018-04-30T08:18:28Z</time>
      </trkpt>
      <trkpt lat="44.61535" lon="2.13547">
        <ele>266.9</ele>
        <time>2018-04-30T08:18:49Z</time>
      </trkpt>
      <trkpt lat="44.61513" lon="2.13549">
        <ele>266.9</ele>
        <time>2018-04-30T08:19:08Z</time>
      </trkpt>
      <trkpt lat="44.61492" lon="2.1355">
        <ele>268.35</ele>
        <time>2018-04-30T08:19:29Z</time>
      </trkpt>
      <trkpt lat="44.6148" lon="2.13544">
        <ele>274.11</ele>
        <time>2018-04-30T08:19:46Z</time>
      </trkpt>
      <trkpt lat="44.61476" lon="2.13545">
        <ele>274.59</ele>
        <time>2018-04-30T08:19:56Z</time>
      </trkpt>
      <trkpt lat="44.61475" lon="2.13545">
        <ele>273.63</ele>
        <time>2018-04-30T08:20:15Z</time>
      </trkpt>
      <trkpt lat="44.61474" lon="2.13546">
        <ele>279.4</ele>
        <time>2018-04-30T08:20:34Z</time>
      </trkpt>
      <trkpt lat="44.61472" lon="2.13545">
        <ele>279.88</ele>
        <time>2018-04-30T08:20:50Z</time>
      </trkpt>
      <trkpt lat="44.61474" lon="2.13544">
        <ele>278.44</ele>
        <time>2018-04-30T08:21:00Z</time>
      </trkpt>
      <trkpt lat="44.61475" lon="2.13541">
        <ele>277.48</ele>
        <time>2018-04-30T08:21:04Z</time>
      </trkpt>
      <trkpt lat="44.61475" lon="2.13532">
        <ele>276.52</ele>
        <time>2018-04-30T08:21:11Z</time>
      </trkpt>
      <trkpt lat="44.61473" lon="2.13504">
        <ele>275.07</ele>
        <time>2018-04-30T08:21:28Z</time>
      </trkpt>
      <trkpt lat="44.61474" lon="2.13494">
        <ele>274.59</ele>
        <time>2018-04-30T08:21:35Z</time>
      </trkpt>
      <trkpt lat="44.61475" lon="2.13461">
        <ele>272.19</ele>
        <time>2018-04-30T08:21:53Z</time>
      </trkpt>
      <trkpt lat="44.61469" lon="2.13435">
        <ele>272.67</ele>
        <time>2018-04-30T08:22:07Z</time>
      </trkpt>
      <trkpt lat="44.61467" lon="2.13406">
        <ele>271.23</ele>
        <time>2018-04-30T08:22:23Z</time>
      </trkpt>
      <trkpt lat="44.61473" lon="2.13388">
        <ele>271.23</ele>
        <time>2018-04-30T08:22:33Z</time>
      </trkpt>
      <trkpt lat="44.61481" lon="2.13353">
        <ele>269.31</ele>
        <time>2018-04-30T08:22:51Z</time>
      </trkpt>
      <trkpt lat="44.61471" lon="2.13325">
        <ele>269.31</ele>
        <time>2018-04-30T08:23:06Z</time>
      </trkpt>
      <trkpt lat="44.61468" lon="2.13298">
        <ele>266.42</ele>
        <time>2018-04-30T08:23:23Z</time>
      </trkpt>
      <trkpt lat="44.61467" lon="2.13296">
        <ele>265.94</ele>
        <time>2018-04-30T08:23:24Z</time>
      </trkpt>
      <trkpt lat="44.61467" lon="2.13266">
        <ele>262.58</ele>
        <time>2018-04-30T08:23:43Z</time>
      </trkpt>
      <trkpt lat="44.6147" lon="2.13238">
        <ele>259.21</ele>
        <time>2018-04-30T08:24:00Z</time>
      </trkpt>
      <trkpt lat="44.61465" lon="2.13203">
        <ele>260.17</ele>
        <time>2018-04-30T08:24:18Z</time>
      </trkpt>
      <trkpt lat="44.61472" lon="2.13169">
        <ele>266.42</ele>
        <time>2018-04-30T08:24:35Z</time>
      </trkpt>
      <trkpt lat="44.61474" lon="2.13139">
        <ele>269.79</ele>
        <time>2018-04-30T08:24:52Z</time>
      </trkpt>
      <trkpt lat="44.6147" lon="2.13103">
        <ele>269.79</ele>
        <time>2018-04-30T08:25:11Z</time>
      </trkpt>
      <trkpt lat="44.6147" lon="2.13079">
        <ele>270.75</ele>
        <time>2018-04-30T08:25:26Z</time>
      </trkpt>
      <trkpt lat="44.6147" lon="2.13043">
        <ele>272.19</ele>
        <time>2018-04-30T08:25:46Z</time>
      </trkpt>
      <trkpt lat="44.6147" lon="2.1301">
        <ele>272.19</ele>
        <time>2018-04-30T08:26:05Z</time>
      </trkpt>
      <trkpt lat="44.61467" lon="2.12976">
        <ele>270.75</ele>
        <time>2018-04-30T08:26:24Z</time>
      </trkpt>
      <trkpt lat="44.61467" lon="2.12935">
        <ele>269.79</ele>
        <time>2018-04-30T08:26:45Z</time>
      </trkpt>
      <trkpt lat="44.61468" lon="2.12898">
        <ele>270.27</ele>
        <time>2018-04-30T08:27:05Z</time>
      </trkpt>
      <trkpt lat="44.61471" lon="2.12853">
        <ele>271.23</ele>
        <time>2018-04-30T08:27:28Z</time>
      </trkpt>
      <trkpt lat="44.61472" lon="2.12822">
        <ele>272.67</ele>
        <time>2018-04-30T08:27:45Z</time>
      </trkpt>
      <trkpt lat="44.61472" lon="2.1279">
        <ele>274.59</ele>
        <time>2018-04-30T08:28:02Z</time>
      </trkpt>
      <trkpt lat="44.61471" lon="2.12755">
        <ele>276.04</ele>
        <time>2018-04-30T08:28:22Z</time>
      </trkpt>
      <trkpt lat="44.61468" lon="2.12722">
        <ele>278.44</ele>
        <time>2018-04-30T08:28:41Z</time>
      </trkpt>
      <trkpt lat="44.61454" lon="2.12694">
        <ele>279.88</ele>
        <time>2018-04-30T08:29:00Z</time>
      </trkpt>
      <trkpt lat="44.61439" lon="2.12671">
        <ele>278.44</ele>
        <time>2018-04-30T08:29:18Z</time>
      </trkpt>
      <trkpt lat="44.61432" lon="2.12637">
        <ele>278.92</ele>
        <time>2018-04-30T08:29:35Z</time>
      </trkpt>
      <trkpt lat="44.61431" lon="2.12612">
        <ele>275.56</ele>
        <time>2018-04-30T08:29:52Z</time>
      </trkpt>
      <trkpt lat="44.61419" lon="2.12584">
        <ele>275.56</ele>
        <time>2018-04-30T08:30:11Z</time>
      </trkpt>
      <trkpt lat="44.61418" lon="2.12582">
        <ele>275.56</ele>
        <time>2018-04-30T08:30:12Z</time>
      </trkpt>
      <trkpt lat="44.61418" lon="2.12575">
        <ele>275.56</ele>
        <time>2018-04-30T08:30:15Z</time>
      </trkpt>
      <trkpt lat="44.61415" lon="2.1256">
        <ele>275.56</ele>
        <time>2018-04-30T08:30:22Z</time>
      </trkpt>
      <trkpt lat="44.61414" lon="2.12533">
        <ele>275.07</ele>
        <time>2018-04-30T08:30:38Z</time>
      </trkpt>
      <trkpt lat="44.61408" lon="2.12503">
        <ele>274.11</ele>
        <time>2018-04-30T08:30:55Z</time>
      </trkpt>
      <trkpt lat="44.61403" lon="2.12474">
        <ele>274.11</ele>
        <time>2018-04-30T08:31:13Z</time>
      </trkpt>
      <trkpt lat="44.61393" lon="2.12445">
        <ele>275.56</ele>
        <time>2018-04-30T08:31:29Z</time>
      </trkpt>
      <trkpt lat="44.61383" lon="2.12419">
        <ele>277.48</ele>
        <time>2018-04-30T08:31:45Z</time>
      </trkpt>
      <trkpt lat="44.61372" lon="2.12395">
        <ele>277.96</ele>
        <time>2018-04-30T08:32:01Z</time>
      </trkpt>
      <trkpt lat="44.61359" lon="2.12373">
        <ele>278.44</ele>
        <time>2018-04-30T08:32:16Z</time>
      </trkpt>
      <trkpt lat="44.61345" lon="2.12348">
        <ele>277.96</ele>
        <time>2018-04-30T08:32:33Z</time>
      </trkpt>
      <trkpt lat="44.61333" lon="2.12324">
        <ele>275.56</ele>
        <time>2018-04-30T08:32:50Z</time>
      </trkpt>
      <trkpt lat="44.61321" lon="2.12306">
        <ele>271.23</ele>
        <time>2018-04-30T08:33:08Z</time>
      </trkpt>
      <trkpt lat="44.61299" lon="2.12278">
        <ele>267.38</ele>
        <time>2018-04-30T08:33:33Z</time>
      </trkpt>
      <trkpt lat="44.61286" lon="2.12259">
        <ele>263.06</ele>
        <time>2018-04-30T08:33:50Z</time>
      </trkpt>
      <trkpt lat="44.61277" lon="2.12247">
        <ele>261.14</ele>
        <time>2018-04-30T08:34:00Z</time>
      </trkpt>
      <trkpt lat="44.61259" lon="2.12214">
        <ele>258.25</ele>
        <time>2018-04-30T08:34:18Z</time>
      </trkpt>
      <trkpt lat="44.61253" lon="2.12195">
        <ele>254.41</ele>
        <time>2018-04-30T08:34:34Z</time>
      </trkpt>
      <trkpt lat="44.61243" lon="2.12175">
        <ele>244.79</ele>
        <time>2018-04-30T08:34:54Z</time>
      </trkpt>
      <trkpt lat="44.61223" lon="2.12148">
        <ele>240.47</ele>
        <time>2018-04-30T08:35:15Z</time>
      </trkpt>
      <trkpt lat="44.61206" lon="2.12125">
        <ele>242.87</ele>
        <time>2018-04-30T08:35:33Z</time>
      </trkpt>
      <trkpt lat="44.61195" lon="2.121">
        <ele>243.35</ele>
        <time>2018-04-30T08:35:52Z</time>
      </trkpt>
      <trkpt lat="44.61186" lon="2.12075">
        <ele>244.79</ele>
        <time>2018-04-30T08:36:08Z</time>
      </trkpt>
      <trkpt lat="44.61178" lon="2.12046">
        <ele>245.75</ele>
        <time>2018-04-30T08:36:25Z</time>
      </trkpt>
      <trkpt lat="44.61176" lon="2.12035">
        <ele>246.23</ele>
        <time>2018-04-30T08:36:32Z</time>
      </trkpt>
      <trkpt lat="44.61166" lon="2.12007">
        <ele>249.6</ele>
        <time>2018-04-30T08:36:50Z</time>
      </trkpt>
      <trkpt lat="44.61157" lon="2.11982">
        <ele>251.52</ele>
        <time>2018-04-30T08:37:05Z</time>
      </trkpt>
      <trkpt lat="44.61153" lon="2.11956">
        <ele>252.48</ele>
        <time>2018-04-30T08:37:22Z</time>
      </trkpt>
      <trkpt lat="44.61143" lon="2.11922">
        <ele>253.44</ele>
        <time>2018-04-30T08:37:42Z</time>
      </trkpt>
      <trkpt lat="44.61138" lon="2.1189">
        <ele>252</ele>
        <time>2018-04-30T08:38:01Z</time>
      </trkpt>
      <trkpt lat="44.61132" lon="2.11861">
        <ele>252</ele>
        <time>2018-04-30T08:38:17Z</time>
      </trkpt>
      <trkpt lat="44.61128" lon="2.1183">
        <ele>260.65</ele>
        <time>2018-04-30T08:38:33Z</time>
      </trkpt>
      <trkpt lat="44.61124" lon="2.11805">
        <ele>260.17</ele>
        <time>2018-04-30T08:38:50Z</time>
      </trkpt>
      <trkpt lat="44.61113" lon="2.11779">
        <ele>261.14</ele>
        <time>2018-04-30T08:39:07Z</time>
      </trkpt>
      <trkpt lat="44.61105" lon="2.11764">
        <ele>261.62</ele>
        <time>2018-04-30T08:39:24Z</time>
      </trkpt>
      <trkpt lat="44.61088" lon="2.11774">
        <ele>262.1</ele>
        <time>2018-04-30T08:39:39Z</time>
      </trkpt>
      <trkpt lat="44.61084" lon="2.11776">
        <ele>260.17</ele>
        <time>2018-04-30T08:39:43Z</time>
      </trkpt>
      <trkpt lat="44.61065" lon="2.11796">
        <ele>253.93</ele>
        <time>2018-04-30T08:40:02Z</time>
      </trkpt>
      <trkpt lat="44.6105" lon="2.11807">
        <ele>252.48</ele>
        <time>2018-04-30T08:40:22Z</time>
      </trkpt>
      <trkpt lat="44.6102" lon="2.11812">
        <ele>260.17</ele>
        <time>2018-04-30T08:40:43Z</time>
      </trkpt>
      <trkpt lat="44.61002" lon="2.11824">
        <ele>262.1</ele>
        <time>2018-04-30T08:41:04Z</time>
      </trkpt>
      <trkpt lat="44.6098" lon="2.11828">
        <ele>267.38</ele>
        <time>2018-04-30T08:41:27Z</time>
      </trkpt>
      <trkpt lat="44.60978" lon="2.11828">
        <ele>267.38</ele>
        <time>2018-04-30T08:41:47Z</time>
      </trkpt>
      <trkpt lat="44.60971" lon="2.1182">
        <ele>267.86</ele>
        <time>2018-04-30T08:42:05Z</time>
      </trkpt>
      <trkpt lat="44.60962" lon="2.11797">
        <ele>267.86</ele>
        <time>2018-04-30T08:42:27Z</time>
      </trkpt>
      <trkpt lat="44.60954" lon="2.1176">
        <ele>268.83</ele>
        <time>2018-04-30T08:42:49Z</time>
      </trkpt>
      <trkpt lat="44.60946" lon="2.11722">
        <ele>270.27</ele>
        <time>2018-04-30T08:43:06Z</time>
      </trkpt>
      <trkpt lat="44.60948" lon="2.11707">
        <ele>273.15</ele>
        <time>2018-04-30T08:43:14Z</time>
      </trkpt>
      <trkpt lat="44.60947" lon="2.11683">
        <ele>267.38</ele>
        <time>2018-04-30T08:43:30Z</time>
      </trkpt>
      <trkpt lat="44.60966" lon="2.1165">
        <ele>264.98</ele>
        <time>2018-04-30T08:43:49Z</time>
      </trkpt>
      <trkpt lat="44.6098" lon="2.11626">
        <ele>264.5</ele>
        <time>2018-04-30T08:44:08Z</time>
      </trkpt>
      <trkpt lat="44.60985" lon="2.11609">
        <ele>264.98</ele>
        <time>2018-04-30T08:44:18Z</time>
      </trkpt>
      <trkpt lat="44.61002" lon="2.11578">
        <ele>266.9</ele>
        <time>2018-04-30T08:44:38Z</time>
      </trkpt>
      <trkpt lat="44.61018" lon="2.11552">
        <ele>266.42</ele>
        <time>2018-04-30T08:44:56Z</time>
      </trkpt>
      <trkpt lat="44.61029" lon="2.11536">
        <ele>266.42</ele>
        <time>2018-04-30T08:45:09Z</time>
      </trkpt>
      <trkpt lat="44.6103" lon="2.11514">
        <ele>266.42</ele>
        <time>2018-04-30T08:45:28Z</time>
      </trkpt>
      <trkpt lat="44.61021" lon="2.1149">
        <ele>265.46</ele>
        <time>2018-04-30T08:45:47Z</time>
      </trkpt>
      <trkpt lat="44.61018" lon="2.11455">
        <ele>269.31</ele>
        <time>2018-04-30T08:46:07Z</time>
      </trkpt>
      <trkpt lat="44.61026" lon="2.11434">
        <ele>267.38</ele>
        <time>2018-04-30T08:46:24Z</time>
      </trkpt>
      <trkpt lat="44.61044" lon="2.11416">
        <ele>265.94</ele>
        <time>2018-04-30T08:46:45Z</time>
      </trkpt>
      <trkpt lat="44.61066" lon="2.11404">
        <ele>265.94</ele>
        <time>2018-04-30T08:47:06Z</time>
      </trkpt>
      <trkpt lat="44.61089" lon="2.11396">
        <ele>267.38</ele>
        <time>2018-04-30T08:47:26Z</time>
      </trkpt>
      <trkpt lat="44.61109" lon="2.11383">
        <ele>265.46</ele>
        <time>2018-04-30T08:47:48Z</time>
      </trkpt>
      <trkpt lat="44.61114" lon="2.11382">
        <ele>265.94</ele>
        <time>2018-04-30T08:47:51Z</time>
      </trkpt>
      <trkpt lat="44.61134" lon="2.11368">
        <ele>271.23</ele>
        <time>2018-04-30T08:48:11Z</time>
      </trkpt>
      <trkpt lat="44.61143" lon="2.11353">
        <ele>269.79</ele>
        <time>2018-04-30T08:48:29Z</time>
      </trkpt>
      <trkpt lat="44.6116" lon="2.1133">
        <ele>271.23</ele>
        <time>2018-04-30T08:48:51Z</time>
      </trkpt>
      <trkpt lat="44.61175" lon="2.11305">
        <ele>274.59</ele>
        <time>2018-04-30T08:49:12Z</time>
      </trkpt>
      <trkpt lat="44.61194" lon="2.11273">
        <ele>280.36</ele>
        <time>2018-04-30T08:49:36Z</time>
      </trkpt>
      <trkpt lat="44.61212" lon="2.11246">
        <ele>294.78</ele>
        <time>2018-04-30T08:49:55Z</time>
      </trkpt>
      <trkpt lat="44.61228" lon="2.1123">
        <ele>297.18</ele>
        <time>2018-04-30T08:50:14Z</time>
      </trkpt>
      <trkpt lat="44.61247" lon="2.11225">
        <ele>297.18</ele>
        <time>2018-04-30T08:50:30Z</time>
      </trkpt>
      <trkpt lat="44.61266" lon="2.11216">
        <ele>299.11</ele>
        <time>2018-04-30T08:50:48Z</time>
      </trkpt>
      <trkpt lat="44.61287" lon="2.11207">
        <ele>298.15</ele>
        <time>2018-04-30T08:51:07Z</time>
      </trkpt>
      <trkpt lat="44.61304" lon="2.11193">
        <ele>296.22</ele>
        <time>2018-04-30T08:51:27Z</time>
      </trkpt>
      <trkpt lat="44.61325" lon="2.11181">
        <ele>295.26</ele>
        <time>2018-04-30T08:51:45Z</time>
      </trkpt>
      <trkpt lat="44.61347" lon="2.11167">
        <ele>296.22</ele>
        <time>2018-04-30T08:52:02Z</time>
      </trkpt>
      <trkpt lat="44.61364" lon="2.11155">
        <ele>298.15</ele>
        <time>2018-04-30T08:52:21Z</time>
      </trkpt>
      <trkpt lat="44.61385" lon="2.11142">
        <ele>298.63</ele>
        <time>2018-04-30T08:52:42Z</time>
      </trkpt>
      <trkpt lat="44.61393" lon="2.11138">
        <ele>298.63</ele>
        <time>2018-04-30T08:52:49Z</time>
      </trkpt>
      <trkpt lat="44.61414" lon="2.11122">
        <ele>297.18</ele>
        <time>2018-04-30T08:53:10Z</time>
      </trkpt>
      <trkpt lat="44.61434" lon="2.11108">
        <ele>296.22</ele>
        <time>2018-04-30T08:53:28Z</time>
      </trkpt>
      <trkpt lat="44.61451" lon="2.11095">
        <ele>297.18</ele>
        <time>2018-04-30T08:53:46Z</time>
      </trkpt>
      <trkpt lat="44.61466" lon="2.1108">
        <ele>297.18</ele>
        <time>2018-04-30T08:54:04Z</time>
      </trkpt>
      <trkpt lat="44.61485" lon="2.11065">
        <ele>298.63</ele>
        <time>2018-04-30T08:54:22Z</time>
      </trkpt>
      <trkpt lat="44.61501" lon="2.11051">
        <ele>304.88</ele>
        <time>2018-04-30T08:54:41Z</time>
      </trkpt>
      <trkpt lat="44.61519" lon="2.11038">
        <ele>306.8</ele>
        <time>2018-04-30T08:54:59Z</time>
      </trkpt>
      <trkpt lat="44.61544" lon="2.11028">
        <ele>318.33</ele>
        <time>2018-04-30T08:55:16Z</time>
      </trkpt>
      <trkpt lat="44.6156" lon="2.1102">
        <ele>319.78</ele>
        <time>2018-04-30T08:55:30Z</time>
      </trkpt>
      <trkpt lat="44.61578" lon="2.1101">
        <ele>320.26</ele>
        <time>2018-04-30T08:55:47Z</time>
      </trkpt>
      <trkpt lat="44.61592" lon="2.10993">
        <ele>317.85</ele>
        <time>2018-04-30T08:56:05Z</time>
      </trkpt>
      <trkpt lat="44.61612" lon="2.10979">
        <ele>316.89</ele>
        <time>2018-04-30T08:56:26Z</time>
      </trkpt>
      <trkpt lat="44.61631" lon="2.10967">
        <ele>317.37</ele>
        <time>2018-04-30T08:56:45Z</time>
      </trkpt>
      <trkpt lat="44.61638" lon="2.10961">
        <ele>319.78</ele>
        <time>2018-04-30T08:56:51Z</time>
      </trkpt>
      <trkpt lat="44.61655" lon="2.10936">
        <ele>325.06</ele>
        <time>2018-04-30T08:57:09Z</time>
      </trkpt>
      <trkpt lat="44.61674" lon="2.10913">
        <ele>328.43</ele>
        <time>2018-04-30T08:57:27Z</time>
      </trkpt>
      <trkpt lat="44.61691" lon="2.10889">
        <ele>329.87</ele>
        <time>2018-04-30T08:57:44Z</time>
      </trkpt>
      <trkpt lat="44.61702" lon="2.10875">
        <ele>330.83</ele>
        <time>2018-04-30T08:57:56Z</time>
      </trkpt>
      <trkpt lat="44.61715" lon="2.10861">
        <ele>332.75</ele>
        <time>2018-04-30T08:58:10Z</time>
      </trkpt>
      <trkpt lat="44.61728" lon="2.1084">
        <ele>333.23</ele>
        <time>2018-04-30T08:58:31Z</time>
      </trkpt>
      <trkpt lat="44.61731" lon="2.10838">
        <ele>332.75</ele>
        <time>2018-04-30T08:58:33Z</time>
      </trkpt>
      <trkpt lat="44.61759" lon="2.10834">
        <ele>329.39</ele>
        <time>2018-04-30T08:58:54Z</time>
      </trkpt>
      <trkpt lat="44.61786" lon="2.10839">
        <ele>329.39</ele>
        <time>2018-04-30T08:59:12Z</time>
      </trkpt>
      <trkpt lat="44.61799" lon="2.1084">
        <ele>327.47</ele>
        <time>2018-04-30T08:59:32Z</time>
      </trkpt>
      <trkpt lat="44.61817" lon="2.10837">
        <ele>326.5</ele>
        <time>2018-04-30T08:59:54Z</time>
      </trkpt>
      <trkpt lat="44.61838" lon="2.10831">
        <ele>326.02</ele>
        <time>2018-04-30T09:00:10Z</time>
      </trkpt>
      <trkpt lat="44.61859" lon="2.10823">
        <ele>323.62</ele>
        <time>2018-04-30T09:00:28Z</time>
      </trkpt>
      <trkpt lat="44.61876" lon="2.10825">
        <ele>327.95</ele>
        <time>2018-04-30T09:00:45Z</time>
      </trkpt>
      <trkpt lat="44.61893" lon="2.10824">
        <ele>334.2</ele>
        <time>2018-04-30T09:00:59Z</time>
      </trkpt>
      <trkpt lat="44.61912" lon="2.10806">
        <ele>333.71</ele>
        <time>2018-04-30T09:01:20Z</time>
      </trkpt>
      <trkpt lat="44.61931" lon="2.10791">
        <ele>332.75</ele>
        <time>2018-04-30T09:01:39Z</time>
      </trkpt>
      <trkpt lat="44.61955" lon="2.10775">
        <ele>331.79</ele>
        <time>2018-04-30T09:02:01Z</time>
      </trkpt>
      <trkpt lat="44.61973" lon="2.10768">
        <ele>329.87</ele>
        <time>2018-04-30T09:02:21Z</time>
      </trkpt>
      <trkpt lat="44.61984" lon="2.10763">
        <ele>330.83</ele>
        <time>2018-04-30T09:02:42Z</time>
      </trkpt>
      <trkpt lat="44.61987" lon="2.10758">
        <ele>331.31</ele>
        <time>2018-04-30T09:02:46Z</time>
      </trkpt>
      <trkpt lat="44.61996" lon="2.10754">
        <ele>341.89</ele>
        <time>2018-04-30T09:02:52Z</time>
      </trkpt>
      <trkpt lat="44.61996" lon="2.10741">
        <ele>341.89</ele>
        <time>2018-04-30T09:03:06Z</time>
      </trkpt>
      <trkpt lat="44.61991" lon="2.10733">
        <ele>341.41</ele>
        <time>2018-04-30T09:03:14Z</time>
      </trkpt>
      <trkpt lat="44.61973" lon="2.10725">
        <ele>340.92</ele>
        <time>2018-04-30T09:03:33Z</time>
      </trkpt>
      <trkpt lat="44.61963" lon="2.10725">
        <ele>340.44</ele>
        <time>2018-04-30T09:03:50Z</time>
      </trkpt>
      <trkpt lat="44.61957" lon="2.10731">
        <ele>339.48</ele>
        <time>2018-04-30T09:04:08Z</time>
      </trkpt>
      <trkpt lat="44.61954" lon="2.10731">
        <ele>338.52</ele>
        <time>2018-04-30T09:04:33Z</time>
      </trkpt>
      <trkpt lat="44.61948" lon="2.10729">
        <ele>338.04</ele>
        <time>2018-04-30T09:05:06Z</time>
      </trkpt>
      <trkpt lat="44.61949" lon="2.10727">
        <ele>337.56</ele>
        <time>2018-04-30T09:05:34Z</time>
      </trkpt>
      <trkpt lat="44.61949" lon="2.10726">
        <ele>338.52</ele>
        <time>2018-04-30T09:06:05Z</time>
      </trkpt>
      <trkpt lat="44.61952" lon="2.10729">
        <ele>342.37</ele>
        <time>2018-04-30T09:06:40Z</time>
      </trkpt>
      <trkpt lat="44.61953" lon="2.10729">
        <ele>339.96</ele>
        <time>2018-04-30T09:07:06Z</time>
      </trkpt>
      <trkpt lat="44.61948" lon="2.10739">
        <ele>342.85</ele>
        <time>2018-04-30T09:07:37Z</time>
      </trkpt>
      <trkpt lat="44.61948" lon="2.1074">
        <ele>343.33</ele>
        <time>2018-04-30T09:08:07Z</time>
      </trkpt>
      <trkpt lat="44.61952" lon="2.10733">
        <ele>341.89</ele>
        <time>2018-04-30T09:08:31Z</time>
      </trkpt>
      <trkpt lat="44.61957" lon="2.10719">
        <ele>338.52</ele>
        <time>2018-04-30T09:08:56Z</time>
      </trkpt>
      <trkpt lat="44.61953" lon="2.10726">
        <ele>339.96</ele>
        <time>2018-04-30T09:09:17Z</time>
      </trkpt>
      <trkpt lat="44.61957" lon="2.10732">
        <ele>342.85</ele>
        <time>2018-04-30T09:09:36Z</time>
      </trkpt>
      <trkpt lat="44.61951" lon="2.10732">
        <ele>343.33</ele>
        <time>2018-04-30T09:10:02Z</time>
      </trkpt>
      <trkpt lat="44.61945" lon="2.10731">
        <ele>339.96</ele>
        <time>2018-04-30T09:10:33Z</time>
      </trkpt>
      <trkpt lat="44.61945" lon="2.10727">
        <ele>335.64</ele>
        <time>2018-04-30T09:11:08Z</time>
      </trkpt>
      <trkpt lat="44.61945" lon="2.10728">
        <ele>336.12</ele>
        <time>2018-04-30T09:11:40Z</time>
      </trkpt>
      <trkpt lat="44.61944" lon="2.10725">
        <ele>337.56</ele>
        <time>2018-04-30T09:12:13Z</time>
      </trkpt>
      <trkpt lat="44.61948" lon="2.10726">
        <ele>336.6</ele>
        <time>2018-04-30T09:12:50Z</time>
      </trkpt>
      <trkpt lat="44.61956" lon="2.10729">
        <ele>340.44</ele>
        <time>2018-04-30T09:13:13Z</time>
      </trkpt>
      <trkpt lat="44.61951" lon="2.10726">
        <ele>338.04</ele>
        <time>2018-04-30T09:13:39Z</time>
      </trkpt>
      <trkpt lat="44.61949" lon="2.10727">
        <ele>339.96</ele>
        <time>2018-04-30T09:14:16Z</time>
      </trkpt>
      <trkpt lat="44.61962" lon="2.10733">
        <ele>345.73</ele>
        <time>2018-04-30T09:14:48Z</time>
      </trkpt>
      <trkpt lat="44.61964" lon="2.1073">
        <ele>350.06</ele>
        <time>2018-04-30T09:15:11Z</time>
      </trkpt>
      <trkpt lat="44.61959" lon="2.10731">
        <ele>348.13</ele>
        <time>2018-04-30T09:15:45Z</time>
      </trkpt>
      <trkpt lat="44.61958" lon="2.10735">
        <ele>348.13</ele>
        <time>2018-04-30T09:16:20Z</time>
      </trkpt>
      <trkpt lat="44.61963" lon="2.10734">
        <ele>351.5</ele>
        <time>2018-04-30T09:16:52Z</time>
      </trkpt>
      <trkpt lat="44.61962" lon="2.10734">
        <ele>350.06</ele>
        <time>2018-04-30T09:17:21Z</time>
      </trkpt>
      <trkpt lat="44.61967" lon="2.1073">
        <ele>350.54</ele>
        <time>2018-04-30T09:17:27Z</time>
      </trkpt>
      <trkpt lat="44.61972" lon="2.10728">
        <ele>353.9</ele>
        <time>2018-04-30T09:17:32Z</time>
      </trkpt>
      <trkpt lat="44.61978" lon="2.1071">
        <ele>356.79</ele>
        <time>2018-04-30T09:17:47Z</time>
      </trkpt>
      <trkpt lat="44.61972" lon="2.10681">
        <ele>356.79</ele>
        <time>2018-04-30T09:18:05Z</time>
      </trkpt>
      <trkpt lat="44.61962" lon="2.10653">
        <ele>354.86</ele>
        <time>2018-04-30T09:18:29Z</time>
      </trkpt>
      <trkpt lat="44.61954" lon="2.10624">
        <ele>352.94</ele>
        <time>2018-04-30T09:18:47Z</time>
      </trkpt>
      <trkpt lat="44.61943" lon="2.106">
        <ele>351.02</ele>
        <time>2018-04-30T09:19:05Z</time>
      </trkpt>
      <trkpt lat="44.6193" lon="2.1058">
        <ele>347.65</ele>
        <time>2018-04-30T09:19:22Z</time>
      </trkpt>
      <trkpt lat="44.61926" lon="2.10575">
        <ele>346.21</ele>
        <time>2018-04-30T09:19:28Z</time>
      </trkpt>
      <trkpt lat="44.61911" lon="2.10549">
        <ele>340.92</ele>
        <time>2018-04-30T09:19:46Z</time>
      </trkpt>
      <trkpt lat="44.61899" lon="2.10532">
        <ele>342.37</ele>
        <time>2018-04-30T09:19:56Z</time>
      </trkpt>
      <trkpt lat="44.61886" lon="2.10515">
        <ele>341.89</ele>
        <time>2018-04-30T09:20:10Z</time>
      </trkpt>
      <trkpt lat="44.61868" lon="2.10491">
        <ele>339</ele>
        <time>2018-04-30T09:20:29Z</time>
      </trkpt>
      <trkpt lat="44.61852" lon="2.1047">
        <ele>336.6</ele>
        <time>2018-04-30T09:20:47Z</time>
      </trkpt>
      <trkpt lat="44.61846" lon="2.10456">
        <ele>335.16</ele>
        <time>2018-04-30T09:21:02Z</time>
      </trkpt>
      <trkpt lat="44.6184" lon="2.10444">
        <ele>334.68</ele>
        <time>2018-04-30T09:21:11Z</time>
      </trkpt>
      <trkpt lat="44.61829" lon="2.10413">
        <ele>336.6</ele>
        <time>2018-04-30T09:21:30Z</time>
      </trkpt>
      <trkpt lat="44.61821" lon="2.10386">
        <ele>335.64</ele>
        <time>2018-04-30T09:21:47Z</time>
      </trkpt>
      <trkpt lat="44.61813" lon="2.10355">
        <ele>337.56</ele>
        <time>2018-04-30T09:22:04Z</time>
      </trkpt>
      <trkpt lat="44.61807" lon="2.10328">
        <ele>340.44</ele>
        <time>2018-04-30T09:22:21Z</time>
      </trkpt>
      <trkpt lat="44.618" lon="2.10298">
        <ele>341.41</ele>
        <time>2018-04-30T09:22:39Z</time>
      </trkpt>
      <trkpt lat="44.61794" lon="2.10267">
        <ele>339.96</ele>
        <time>2018-04-30T09:22:59Z</time>
      </trkpt>
      <trkpt lat="44.61787" lon="2.10243">
        <ele>339.96</ele>
        <time>2018-04-30T09:23:14Z</time>
      </trkpt>
      <trkpt lat="44.6178" lon="2.10213">
        <ele>340.92</ele>
        <time>2018-04-30T09:23:30Z</time>
      </trkpt>
      <trkpt lat="44.61772" lon="2.10183">
        <ele>344.77</ele>
        <time>2018-04-30T09:23:47Z</time>
      </trkpt>
      <trkpt lat="44.61766" lon="2.10155">
        <ele>347.17</ele>
        <time>2018-04-30T09:24:04Z</time>
      </trkpt>
      <trkpt lat="44.61759" lon="2.10128">
        <ele>347.17</ele>
        <time>2018-04-30T09:24:22Z</time>
      </trkpt>
      <trkpt lat="44.61751" lon="2.10106">
        <ele>346.21</ele>
        <time>2018-04-30T09:24:37Z</time>
      </trkpt>
      <trkpt lat="44.6174" lon="2.10077">
        <ele>344.29</ele>
        <time>2018-04-30T09:24:56Z</time>
      </trkpt>
      <trkpt lat="44.61728" lon="2.1005">
        <ele>345.73</ele>
        <time>2018-04-30T09:25:13Z</time>
      </trkpt>
      <trkpt lat="44.61719" lon="2.10028">
        <ele>345.25</ele>
        <time>2018-04-30T09:25:28Z</time>
      </trkpt>
      <trkpt lat="44.61709" lon="2.10002">
        <ele>346.69</ele>
        <time>2018-04-30T09:25:46Z</time>
      </trkpt>
      <trkpt lat="44.61698" lon="2.09979">
        <ele>347.17</ele>
        <time>2018-04-30T09:26:00Z</time>
      </trkpt>
      <trkpt lat="44.61686" lon="2.09955">
        <ele>349.1</ele>
        <time>2018-04-30T09:26:17Z</time>
      </trkpt>
      <trkpt lat="44.61672" lon="2.09927">
        <ele>350.54</ele>
        <time>2018-04-30T09:26:37Z</time>
      </trkpt>
      <trkpt lat="44.6166" lon="2.099">
        <ele>351.02</ele>
        <time>2018-04-30T09:26:53Z</time>
      </trkpt>
      <trkpt lat="44.61648" lon="2.09882">
        <ele>351.98</ele>
        <time>2018-04-30T09:27:08Z</time>
      </trkpt>
      <trkpt lat="44.61636" lon="2.09865">
        <ele>351.02</ele>
        <time>2018-04-30T09:27:22Z</time>
      </trkpt>
      <trkpt lat="44.61623" lon="2.09847">
        <ele>351.5</ele>
        <time>2018-04-30T09:27:37Z</time>
      </trkpt>
      <trkpt lat="44.6161" lon="2.09827">
        <ele>351.02</ele>
        <time>2018-04-30T09:27:53Z</time>
      </trkpt>
      <trkpt lat="44.61597" lon="2.09811">
        <ele>351.02</ele>
        <time>2018-04-30T09:28:08Z</time>
      </trkpt>
      <trkpt lat="44.61582" lon="2.0979">
        <ele>351.02</ele>
        <time>2018-04-30T09:28:26Z</time>
      </trkpt>
      <trkpt lat="44.61568" lon="2.09771">
        <ele>350.54</ele>
        <time>2018-04-30T09:28:40Z</time>
      </trkpt>
      <trkpt lat="44.61557" lon="2.09755">
        <ele>350.54</ele>
        <time>2018-04-30T09:28:54Z</time>
      </trkpt>
      <trkpt lat="44.61544" lon="2.09737">
        <ele>350.06</ele>
        <time>2018-04-30T09:29:09Z</time>
      </trkpt>
      <trkpt lat="44.6153" lon="2.09718">
        <ele>350.54</ele>
        <time>2018-04-30T09:29:25Z</time>
      </trkpt>
      <trkpt lat="44.61517" lon="2.09697">
        <ele>350.06</ele>
        <time>2018-04-30T09:29:42Z</time>
      </trkpt>
      <trkpt lat="44.61501" lon="2.09681">
        <ele>350.06</ele>
        <time>2018-04-30T09:29:58Z</time>
      </trkpt>
      <trkpt lat="44.61489" lon="2.09665">
        <ele>351.5</ele>
        <time>2018-04-30T09:30:12Z</time>
      </trkpt>
      <trkpt lat="44.61483" lon="2.09652">
        <ele>354.38</ele>
        <time>2018-04-30T09:30:28Z</time>
      </trkpt>
      <trkpt lat="44.61478" lon="2.09639">
        <ele>356.79</ele>
        <time>2018-04-30T09:30:49Z</time>
      </trkpt>
      <trkpt lat="44.61475" lon="2.0963">
        <ele>356.31</ele>
        <time>2018-04-30T09:31:04Z</time>
      </trkpt>
      <trkpt lat="44.6147" lon="2.09604">
        <ele>356.31</ele>
        <time>2018-04-30T09:31:22Z</time>
      </trkpt>
      <trkpt lat="44.6147" lon="2.09568">
        <ele>357.75</ele>
        <time>2018-04-30T09:31:43Z</time>
      </trkpt>
      <trkpt lat="44.61472" lon="2.09542">
        <ele>359.67</ele>
        <time>2018-04-30T09:31:58Z</time>
      </trkpt>
      <trkpt lat="44.61476" lon="2.09507">
        <ele>363.52</ele>
        <time>2018-04-30T09:32:19Z</time>
      </trkpt>
      <trkpt lat="44.61481" lon="2.09474">
        <ele>367.36</ele>
        <time>2018-04-30T09:32:39Z</time>
      </trkpt>
      <trkpt lat="44.61483" lon="2.0944">
        <ele>369.76</ele>
        <time>2018-04-30T09:33:01Z</time>
      </trkpt>
      <trkpt lat="44.61483" lon="2.09403">
        <ele>369.76</ele>
        <time>2018-04-30T09:33:23Z</time>
      </trkpt>
      <trkpt lat="44.61487" lon="2.09365">
        <ele>369.76</ele>
        <time>2018-04-30T09:33:45Z</time>
      </trkpt>
      <trkpt lat="44.61491" lon="2.09325">
        <ele>371.21</ele>
        <time>2018-04-30T09:34:08Z</time>
      </trkpt>
      <trkpt lat="44.61495" lon="2.09288">
        <ele>372.17</ele>
        <time>2018-04-30T09:34:29Z</time>
      </trkpt>
      <trkpt lat="44.61498" lon="2.09258">
        <ele>374.09</ele>
        <time>2018-04-30T09:34:50Z</time>
      </trkpt>
      <trkpt lat="44.61501" lon="2.09226">
        <ele>375.05</ele>
        <time>2018-04-30T09:35:09Z</time>
      </trkpt>
      <trkpt lat="44.61501" lon="2.09196">
        <ele>374.57</ele>
        <time>2018-04-30T09:35:27Z</time>
      </trkpt>
      <trkpt lat="44.61503" lon="2.09167">
        <ele>374.57</ele>
        <time>2018-04-30T09:35:46Z</time>
      </trkpt>
      <trkpt lat="44.61507" lon="2.09131">
        <ele>373.61</ele>
        <time>2018-04-30T09:36:06Z</time>
      </trkpt>
      <trkpt lat="44.61511" lon="2.091">
        <ele>375.05</ele>
        <time>2018-04-30T09:36:24Z</time>
      </trkpt>
      <trkpt lat="44.6151" lon="2.0907">
        <ele>373.13</ele>
        <time>2018-04-30T09:36:42Z</time>
      </trkpt>
      <trkpt lat="44.61512" lon="2.09035">
        <ele>374.57</ele>
        <time>2018-04-30T09:37:03Z</time>
      </trkpt>
      <trkpt lat="44.61511" lon="2.09011">
        <ele>374.57</ele>
        <time>2018-04-30T09:37:17Z</time>
      </trkpt>
      <trkpt lat="44.61499" lon="2.08984">
        <ele>374.57</ele>
        <time>2018-04-30T09:37:38Z</time>
      </trkpt>
      <trkpt lat="44.61487" lon="2.08964">
        <ele>376.01</ele>
        <time>2018-04-30T09:37:55Z</time>
      </trkpt>
      <trkpt lat="44.61475" lon="2.08942">
        <ele>375.53</ele>
        <time>2018-04-30T09:38:13Z</time>
      </trkpt>
      <trkpt lat="44.6146" lon="2.0892">
        <ele>373.61</ele>
        <time>2018-04-30T09:38:32Z</time>
      </trkpt>
      <trkpt lat="44.61444" lon="2.08896">
        <ele>379.86</ele>
        <time>2018-04-30T09:38:49Z</time>
      </trkpt>
      <trkpt lat="44.61441" lon="2.08894">
        <ele>379.86</ele>
        <time>2018-04-30T09:38:52Z</time>
      </trkpt>
      <trkpt lat="44.61431" lon="2.0888">
        <ele>380.82</ele>
        <time>2018-04-30T09:39:05Z</time>
      </trkpt>
      <trkpt lat="44.61423" lon="2.08853">
        <ele>382.74</ele>
        <time>2018-04-30T09:39:23Z</time>
      </trkpt>
      <trkpt lat="44.61418" lon="2.08826">
        <ele>383.22</ele>
        <time>2018-04-30T09:39:40Z</time>
      </trkpt>
      <trkpt lat="44.61416" lon="2.08811">
        <ele>380.82</ele>
        <time>2018-04-30T09:39:58Z</time>
      </trkpt>
      <trkpt lat="44.61411" lon="2.08812">
        <ele>381.3</ele>
        <time>2018-04-30T09:40:28Z</time>
      </trkpt>
      <trkpt lat="44.61412" lon="2.0881">
        <ele>382.26</ele>
        <time>2018-04-30T09:41:03Z</time>
      </trkpt>
      <trkpt lat="44.61415" lon="2.08812">
        <ele>386.59</ele>
        <time>2018-04-30T09:41:42Z</time>
      </trkpt>
      <trkpt lat="44.61413" lon="2.08811">
        <ele>387.07</ele>
        <time>2018-04-30T09:42:19Z</time>
      </trkpt>
      <trkpt lat="44.61412" lon="2.0879">
        <ele>384.66</ele>
        <time>2018-04-30T09:42:41Z</time>
      </trkpt>
      <trkpt lat="44.61405" lon="2.08754">
        <ele>380.82</ele>
        <time>2018-04-30T09:43:03Z</time>
      </trkpt>
      <trkpt lat="44.61397" lon="2.08726">
        <ele>377.45</ele>
        <time>2018-04-30T09:43:22Z</time>
      </trkpt>
      <trkpt lat="44.61385" lon="2.08702">
        <ele>374.57</ele>
        <time>2018-04-30T09:43:41Z</time>
      </trkpt>
      <trkpt lat="44.61366" lon="2.08709">
        <ele>374.09</ele>
        <time>2018-04-30T09:43:58Z</time>
      </trkpt>
      <trkpt lat="44.61346" lon="2.08719">
        <ele>376.01</ele>
        <time>2018-04-30T09:44:15Z</time>
      </trkpt>
      <trkpt lat="44.61333" lon="2.08727">
        <ele>376.97</ele>
        <time>2018-04-30T09:44:33Z</time>
      </trkpt>
      <trkpt lat="44.61328" lon="2.08725">
        <ele>375.05</ele>
        <time>2018-04-30T09:45:03Z</time>
      </trkpt>
      <trkpt lat="44.61329" lon="2.08724">
        <ele>376.49</ele>
        <time>2018-04-30T09:45:37Z</time>
      </trkpt>
      <trkpt lat="44.6132" lon="2.0873">
        <ele>377.45</ele>
        <time>2018-04-30T09:46:03Z</time>
      </trkpt>
      <trkpt lat="44.61309" lon="2.08717">
        <ele>377.94</ele>
        <time>2018-04-30T09:46:18Z</time>
      </trkpt>
      <trkpt lat="44.61298" lon="2.08698">
        <ele>380.34</ele>
        <time>2018-04-30T09:46:35Z</time>
      </trkpt>
      <trkpt lat="44.61283" lon="2.08692">
        <ele>380.34</ele>
        <time>2018-04-30T09:46:49Z</time>
      </trkpt>
      <trkpt lat="44.61267" lon="2.08695">
        <ele>385.63</ele>
        <time>2018-04-30T09:47:03Z</time>
      </trkpt>
      <trkpt lat="44.61245" lon="2.08692">
        <ele>386.59</ele>
        <time>2018-04-30T09:47:21Z</time>
      </trkpt>
      <trkpt lat="44.61225" lon="2.08692">
        <ele>386.59</ele>
        <time>2018-04-30T09:47:42Z</time>
      </trkpt>
      <trkpt lat="44.61203" lon="2.0869">
        <ele>386.11</ele>
        <time>2018-04-30T09:48:02Z</time>
      </trkpt>
      <trkpt lat="44.61182" lon="2.0868">
        <ele>385.15</ele>
        <time>2018-04-30T09:48:21Z</time>
      </trkpt>
      <trkpt lat="44.61165" lon="2.08659">
        <ele>380.34</ele>
        <time>2018-04-30T09:48:39Z</time>
      </trkpt>
      <trkpt lat="44.61183" lon="2.08634">
        <ele>376.97</ele>
        <time>2018-04-30T09:49:00Z</time>
      </trkpt>
      <trkpt lat="44.61197" lon="2.08618">
        <ele>372.17</ele>
        <time>2018-04-30T09:49:23Z</time>
      </trkpt>
      <trkpt lat="44.61214" lon="2.08572">
        <ele>368.8</ele>
        <time>2018-04-30T09:49:48Z</time>
      </trkpt>
      <trkpt lat="44.61216" lon="2.08544">
        <ele>365.92</ele>
        <time>2018-04-30T09:50:07Z</time>
      </trkpt>
      <trkpt lat="44.61206" lon="2.08522">
        <ele>358.23</ele>
        <time>2018-04-30T09:50:29Z</time>
      </trkpt>
      <trkpt lat="44.61197" lon="2.08496">
        <ele>356.31</ele>
        <time>2018-04-30T09:50:52Z</time>
      </trkpt>
      <trkpt lat="44.6119" lon="2.08462">
        <ele>360.63</ele>
        <time>2018-04-30T09:51:12Z</time>
      </trkpt>
      <trkpt lat="44.6119" lon="2.08423">
        <ele>367.84</ele>
        <time>2018-04-30T09:51:33Z</time>
      </trkpt>
      <trkpt lat="44.61192" lon="2.084">
        <ele>362.07</ele>
        <time>2018-04-30T09:51:54Z</time>
      </trkpt>
      <trkpt lat="44.61199" lon="2.0836">
        <ele>364.48</ele>
        <time>2018-04-30T09:52:17Z</time>
      </trkpt>
      <trkpt lat="44.61202" lon="2.08319">
        <ele>364.96</ele>
        <time>2018-04-30T09:52:40Z</time>
      </trkpt>
      <trkpt lat="44.61208" lon="2.0829">
        <ele>364.48</ele>
        <time>2018-04-30T09:52:58Z</time>
      </trkpt>
      <trkpt lat="44.61217" lon="2.08259">
        <ele>360.15</ele>
        <time>2018-04-30T09:53:18Z</time>
      </trkpt>
      <trkpt lat="44.61227" lon="2.0822">
        <ele>360.15</ele>
        <time>2018-04-30T09:53:39Z</time>
      </trkpt>
      <trkpt lat="44.61226" lon="2.08185">
        <ele>360.15</ele>
        <time>2018-04-30T09:53:59Z</time>
      </trkpt>
      <trkpt lat="44.61214" lon="2.08153">
        <ele>355.83</ele>
        <time>2018-04-30T09:54:23Z</time>
      </trkpt>
      <trkpt lat="44.61197" lon="2.08116">
        <ele>358.71</ele>
        <time>2018-04-30T09:54:47Z</time>
      </trkpt>
      <trkpt lat="44.61181" lon="2.08096">
        <ele>356.31</ele>
        <time>2018-04-30T09:55:07Z</time>
      </trkpt>
      <trkpt lat="44.61167" lon="2.08068">
        <ele>356.79</ele>
        <time>2018-04-30T09:55:27Z</time>
      </trkpt>
      <trkpt lat="44.61148" lon="2.0804">
        <ele>357.27</ele>
        <time>2018-04-30T09:55:47Z</time>
      </trkpt>
      <trkpt lat="44.61139" lon="2.08016">
        <ele>359.19</ele>
        <time>2018-04-30T09:56:06Z</time>
      </trkpt>
      <trkpt lat="44.61131" lon="2.07982">
        <ele>360.63</ele>
        <time>2018-04-30T09:56:26Z</time>
      </trkpt>
      <trkpt lat="44.61129" lon="2.07956">
        <ele>363.52</ele>
        <time>2018-04-30T09:56:45Z</time>
      </trkpt>
      <trkpt lat="44.61134" lon="2.07951">
        <ele>365.92</ele>
        <time>2018-04-30T09:56:59Z</time>
      </trkpt>
      <trkpt lat="44.61136" lon="2.07946">
        <ele>373.13</ele>
        <time>2018-04-30T09:57:25Z</time>
      </trkpt>
      <trkpt lat="44.61133" lon="2.07944">
        <ele>373.13</ele>
        <time>2018-04-30T09:57:50Z</time>
      </trkpt>
      <trkpt lat="44.61133" lon="2.07947">
        <ele>372.65</ele>
        <time>2018-04-30T09:58:18Z</time>
      </trkpt>
      <trkpt lat="44.61135" lon="2.07948">
        <ele>374.57</ele>
        <time>2018-04-30T09:58:45Z</time>
      </trkpt>
      <trkpt lat="44.61134" lon="2.07947">
        <ele>372.17</ele>
        <time>2018-04-30T09:59:18Z</time>
      </trkpt>
      <trkpt lat="44.61135" lon="2.07945">
        <ele>377.45</ele>
        <time>2018-04-30T09:59:43Z</time>
      </trkpt>
      <trkpt lat="44.61141" lon="2.07946">
        <ele>377.94</ele>
        <time>2018-04-30T10:00:09Z</time>
      </trkpt>
      <trkpt lat="44.61152" lon="2.07943">
        <ele>378.9</ele>
        <time>2018-04-30T10:00:18Z</time>
      </trkpt>
      <trkpt lat="44.61174" lon="2.07935">
        <ele>382.26</ele>
        <time>2018-04-30T10:00:37Z</time>
      </trkpt>
      <trkpt lat="44.612" lon="2.07927">
        <ele>383.7</ele>
        <time>2018-04-30T10:01:01Z</time>
      </trkpt>
      <trkpt lat="44.61215" lon="2.07926">
        <ele>385.63</ele>
        <time>2018-04-30T10:01:19Z</time>
      </trkpt>
      <trkpt lat="44.61233" lon="2.07915">
        <ele>384.18</ele>
        <time>2018-04-30T10:01:36Z</time>
      </trkpt>
      <trkpt lat="44.61225" lon="2.07893">
        <ele>382.26</ele>
        <time>2018-04-30T10:01:54Z</time>
      </trkpt>
      <trkpt lat="44.61209" lon="2.07876">
        <ele>378.9</ele>
        <time>2018-04-30T10:02:15Z</time>
      </trkpt>
      <trkpt lat="44.61188" lon="2.07859">
        <ele>375.53</ele>
        <time>2018-04-30T10:02:35Z</time>
      </trkpt>
      <trkpt lat="44.61173" lon="2.07839">
        <ele>374.57</ele>
        <time>2018-04-30T10:02:53Z</time>
      </trkpt>
      <trkpt lat="44.61152" lon="2.0781">
        <ele>375.05</ele>
        <time>2018-04-30T10:03:15Z</time>
      </trkpt>
      <trkpt lat="44.61133" lon="2.07778">
        <ele>373.13</ele>
        <time>2018-04-30T10:03:38Z</time>
      </trkpt>
      <trkpt lat="44.61115" lon="2.07755">
        <ele>370.73</ele>
        <time>2018-04-30T10:03:58Z</time>
      </trkpt>
      <trkpt lat="44.61096" lon="2.07727">
        <ele>367.36</ele>
        <time>2018-04-30T10:04:20Z</time>
      </trkpt>
      <trkpt lat="44.61091" lon="2.0772">
        <ele>367.36</ele>
        <time>2018-04-30T10:04:25Z</time>
      </trkpt>
      <trkpt lat="44.61079" lon="2.077">
        <ele>367.84</ele>
        <time>2018-04-30T10:04:40Z</time>
      </trkpt>
      <trkpt lat="44.61061" lon="2.07674">
        <ele>368.8</ele>
        <time>2018-04-30T10:05:01Z</time>
      </trkpt>
      <trkpt lat="44.61044" lon="2.07645">
        <ele>368.8</ele>
        <time>2018-04-30T10:05:20Z</time>
      </trkpt>
      <trkpt lat="44.61037" lon="2.07618">
        <ele>366.88</ele>
        <time>2018-04-30T10:05:40Z</time>
      </trkpt>
      <trkpt lat="44.61037" lon="2.07593">
        <ele>362.55</ele>
        <time>2018-04-30T10:05:59Z</time>
      </trkpt>
      <trkpt lat="44.61039" lon="2.07562">
        <ele>355.34</ele>
        <time>2018-04-30T10:06:18Z</time>
      </trkpt>
      <trkpt lat="44.61034" lon="2.07518">
        <ele>355.83</ele>
        <time>2018-04-30T10:06:37Z</time>
      </trkpt>
      <trkpt lat="44.6103" lon="2.07489">
        <ele>354.38</ele>
        <time>2018-04-30T10:06:56Z</time>
      </trkpt>
      <trkpt lat="44.61026" lon="2.07471">
        <ele>352.46</ele>
        <time>2018-04-30T10:07:04Z</time>
      </trkpt>
      <trkpt lat="44.61024" lon="2.07432">
        <ele>361.11</ele>
        <time>2018-04-30T10:07:21Z</time>
      </trkpt>
      <trkpt lat="44.61024" lon="2.07406">
        <ele>357.27</ele>
        <time>2018-04-30T10:07:39Z</time>
      </trkpt>
      <trkpt lat="44.61021" lon="2.07375">
        <ele>353.42</ele>
        <time>2018-04-30T10:07:58Z</time>
      </trkpt>
      <trkpt lat="44.61017" lon="2.07343">
        <ele>351.98</ele>
        <time>2018-04-30T10:08:16Z</time>
      </trkpt>
      <trkpt lat="44.61011" lon="2.07307">
        <ele>350.54</ele>
        <time>2018-04-30T10:08:35Z</time>
      </trkpt>
      <trkpt lat="44.61007" lon="2.07273">
        <ele>349.58</ele>
        <time>2018-04-30T10:08:54Z</time>
      </trkpt>
      <trkpt lat="44.61007" lon="2.07267">
        <ele>349.58</ele>
        <time>2018-04-30T10:08:57Z</time>
      </trkpt>
      <trkpt lat="44.61011" lon="2.07231">
        <ele>349.58</ele>
        <time>2018-04-30T10:09:16Z</time>
      </trkpt>
      <trkpt lat="44.61023" lon="2.07203">
        <ele>348.13</ele>
        <time>2018-04-30T10:09:37Z</time>
      </trkpt>
      <trkpt lat="44.61036" lon="2.07165">
        <ele>350.06</ele>
        <time>2018-04-30T10:09:57Z</time>
      </trkpt>
      <trkpt lat="44.61043" lon="2.07135">
        <ele>348.13</ele>
        <time>2018-04-30T10:10:17Z</time>
      </trkpt>
      <trkpt lat="44.61052" lon="2.07106">
        <ele>347.65</ele>
        <time>2018-04-30T10:10:36Z</time>
      </trkpt>
      <trkpt lat="44.61059" lon="2.07071">
        <ele>347.17</ele>
        <time>2018-04-30T10:10:56Z</time>
      </trkpt>
      <trkpt lat="44.61062" lon="2.07067">
        <ele>351.02</ele>
        <time>2018-04-30T10:11:36Z</time>
      </trkpt>
      <trkpt lat="44.61062" lon="2.07061">
        <ele>359.67</ele>
        <time>2018-04-30T10:12:17Z</time>
      </trkpt>
      <trkpt lat="44.61062" lon="2.0706">
        <ele>364.96</ele>
        <time>2018-04-30T10:12:55Z</time>
      </trkpt>
      <trkpt lat="44.61063" lon="2.07053">
        <ele>364.48</ele>
        <time>2018-04-30T10:13:34Z</time>
      </trkpt>
      <trkpt lat="44.61064" lon="2.07035">
        <ele>362.55</ele>
        <time>2018-04-30T10:13:45Z</time>
      </trkpt>
      <trkpt lat="44.61065" lon="2.07008">
        <ele>358.71</ele>
        <time>2018-04-30T10:14:03Z</time>
      </trkpt>
      <trkpt lat="44.61066" lon="2.06971">
        <ele>354.38</ele>
        <time>2018-04-30T10:14:25Z</time>
      </trkpt>
      <trkpt lat="44.61072" lon="2.06936">
        <ele>349.58</ele>
        <time>2018-04-30T10:14:44Z</time>
      </trkpt>
      <trkpt lat="44.61075" lon="2.06897">
        <ele>344.77</ele>
        <time>2018-04-30T10:15:07Z</time>
      </trkpt>
      <trkpt lat="44.61078" lon="2.06858">
        <ele>341.41</ele>
        <time>2018-04-30T10:15:27Z</time>
      </trkpt>
      <trkpt lat="44.61081" lon="2.06823">
        <ele>337.08</ele>
        <time>2018-04-30T10:15:46Z</time>
      </trkpt>
      <trkpt lat="44.61086" lon="2.06792">
        <ele>333.71</ele>
        <time>2018-04-30T10:16:04Z</time>
      </trkpt>
      <trkpt lat="44.61087" lon="2.06754">
        <ele>331.79</ele>
        <time>2018-04-30T10:16:23Z</time>
      </trkpt>
      <trkpt lat="44.61091" lon="2.06715">
        <ele>331.31</ele>
        <time>2018-04-30T10:16:44Z</time>
      </trkpt>
      <trkpt lat="44.61091" lon="2.06687">
        <ele>331.79</ele>
        <time>2018-04-30T10:16:59Z</time>
      </trkpt>
      <trkpt lat="44.61093" lon="2.06656">
        <ele>331.79</ele>
        <time>2018-04-30T10:17:18Z</time>
      </trkpt>
      <trkpt lat="44.61094" lon="2.06616">
        <ele>331.79</ele>
        <time>2018-04-30T10:17:38Z</time>
      </trkpt>
      <trkpt lat="44.61094" lon="2.0658">
        <ele>330.35</ele>
        <time>2018-04-30T10:17:56Z</time>
      </trkpt>
      <trkpt lat="44.61094" lon="2.06542">
        <ele>328.91</ele>
        <time>2018-04-30T10:18:15Z</time>
      </trkpt>
      <trkpt lat="44.61094" lon="2.06507">
        <ele>327.95</ele>
        <time>2018-04-30T10:18:35Z</time>
      </trkpt>
      <trkpt lat="44.61093" lon="2.06483">
        <ele>326.02</ele>
        <time>2018-04-30T10:18:48Z</time>
      </trkpt>
      <trkpt lat="44.61092" lon="2.06445">
        <ele>324.1</ele>
        <time>2018-04-30T10:19:09Z</time>
      </trkpt>
      <trkpt lat="44.61082" lon="2.06403">
        <ele>321.22</ele>
        <time>2018-04-30T10:19:30Z</time>
      </trkpt>
      <trkpt lat="44.61072" lon="2.06368">
        <ele>319.3</ele>
        <time>2018-04-30T10:19:50Z</time>
      </trkpt>
      <trkpt lat="44.61064" lon="2.06342">
        <ele>317.85</ele>
        <time>2018-04-30T10:20:07Z</time>
      </trkpt>
      <trkpt lat="44.6106" lon="2.06305">
        <ele>315.45</ele>
        <time>2018-04-30T10:20:28Z</time>
      </trkpt>
      <trkpt lat="44.61063" lon="2.0629">
        <ele>310.64</ele>
        <time>2018-04-30T10:20:45Z</time>
      </trkpt>
      <trkpt lat="44.61061" lon="2.06283">
        <ele>311.12</ele>
        <time>2018-04-30T10:21:06Z</time>
      </trkpt>
      <trkpt lat="44.61061" lon="2.06282">
        <ele>311.12</ele>
        <time>2018-04-30T10:21:07Z</time>
      </trkpt>
      <trkpt lat="44.61058" lon="2.06247">
        <ele>310.16</ele>
        <time>2018-04-30T10:21:29Z</time>
      </trkpt>
      <trkpt lat="44.61053" lon="2.06218">
        <ele>308.24</ele>
        <time>2018-04-30T10:21:45Z</time>
      </trkpt>
      <trkpt lat="44.61048" lon="2.06182">
        <ele>306.32</ele>
        <time>2018-04-30T10:22:04Z</time>
      </trkpt>
      <trkpt lat="44.61041" lon="2.06154">
        <ele>304.88</ele>
        <time>2018-04-30T10:22:21Z</time>
      </trkpt>
      <trkpt lat="44.61039" lon="2.06109">
        <ele>303.91</ele>
        <time>2018-04-30T10:22:44Z</time>
      </trkpt>
      <trkpt lat="44.61043" lon="2.06073">
        <ele>303.91</ele>
        <time>2018-04-30T10:23:03Z</time>
      </trkpt>
      <trkpt lat="44.61051" lon="2.06045">
        <ele>303.91</ele>
        <time>2018-04-30T10:23:21Z</time>
      </trkpt>
      <trkpt lat="44.61056" lon="2.06009">
        <ele>300.55</ele>
        <time>2018-04-30T10:23:41Z</time>
      </trkpt>
      <trkpt lat="44.61059" lon="2.0597">
        <ele>297.18</ele>
        <time>2018-04-30T10:24:02Z</time>
      </trkpt>
      <trkpt lat="44.61063" lon="2.0593">
        <ele>298.15</ele>
        <time>2018-04-30T10:24:24Z</time>
      </trkpt>
      <trkpt lat="44.61068" lon="2.05891">
        <ele>298.63</ele>
        <time>2018-04-30T10:24:45Z</time>
      </trkpt>
      <trkpt lat="44.61072" lon="2.05858">
        <ele>295.74</ele>
        <time>2018-04-30T10:25:06Z</time>
      </trkpt>
      <trkpt lat="44.61069" lon="2.05817">
        <ele>292.38</ele>
        <time>2018-04-30T10:25:27Z</time>
      </trkpt>
      <trkpt lat="44.61065" lon="2.05797">
        <ele>290.46</ele>
        <time>2018-04-30T10:25:38Z</time>
      </trkpt>
      <trkpt lat="44.6106" lon="2.05763">
        <ele>287.57</ele>
        <time>2018-04-30T10:25:59Z</time>
      </trkpt>
      <trkpt lat="44.6105" lon="2.05728">
        <ele>280.84</ele>
        <time>2018-04-30T10:26:22Z</time>
      </trkpt>
      <trkpt lat="44.61043" lon="2.05697">
        <ele>275.56</ele>
        <time>2018-04-30T10:26:44Z</time>
      </trkpt>
      <trkpt lat="44.61043" lon="2.0566">
        <ele>271.71</ele>
        <time>2018-04-30T10:27:04Z</time>
      </trkpt>
      <trkpt lat="44.61043" lon="2.05631">
        <ele>269.31</ele>
        <time>2018-04-30T10:27:22Z</time>
      </trkpt>
      <trkpt lat="44.61042" lon="2.05594">
        <ele>267.38</ele>
        <time>2018-04-30T10:27:42Z</time>
      </trkpt>
      <trkpt lat="44.61036" lon="2.05563">
        <ele>260.65</ele>
        <time>2018-04-30T10:28:03Z</time>
      </trkpt>
      <trkpt lat="44.61032" lon="2.05543">
        <ele>262.58</ele>
        <time>2018-04-30T10:28:12Z</time>
      </trkpt>
      <trkpt lat="44.61028" lon="2.05516">
        <ele>259.69</ele>
        <time>2018-04-30T10:28:31Z</time>
      </trkpt>
      <trkpt lat="44.61026" lon="2.0548">
        <ele>254.89</ele>
        <time>2018-04-30T10:28:54Z</time>
      </trkpt>
      <trkpt lat="44.61012" lon="2.05445">
        <ele>247.68</ele>
        <time>2018-04-30T10:29:18Z</time>
      </trkpt>
      <trkpt lat="44.61001" lon="2.05411">
        <ele>243.35</ele>
        <time>2018-04-30T10:29:37Z</time>
      </trkpt>
      <trkpt lat="44.60994" lon="2.05382">
        <ele>234.7</ele>
        <time>2018-04-30T10:29:58Z</time>
      </trkpt>
      <trkpt lat="44.60987" lon="2.05343">
        <ele>226.53</ele>
        <time>2018-04-30T10:30:19Z</time>
      </trkpt>
      <trkpt lat="44.60988" lon="2.05313">
        <ele>222.2</ele>
        <time>2018-04-30T10:30:38Z</time>
      </trkpt>
      <trkpt lat="44.60991" lon="2.05279">
        <ele>216.91</ele>
        <time>2018-04-30T10:31:00Z</time>
      </trkpt>
      <trkpt lat="44.60991" lon="2.05244">
        <ele>212.11</ele>
        <time>2018-04-30T10:31:23Z</time>
      </trkpt>
      <trkpt lat="44.60984" lon="2.05216">
        <ele>206.82</ele>
        <time>2018-04-30T10:31:43Z</time>
      </trkpt>
      <trkpt lat="44.60982" lon="2.05182">
        <ele>204.42</ele>
        <time>2018-04-30T10:32:03Z</time>
      </trkpt>
      <trkpt lat="44.60977" lon="2.05141">
        <ele>202.01</ele>
        <time>2018-04-30T10:32:24Z</time>
      </trkpt>
      <trkpt lat="44.60978" lon="2.05136">
        <ele>201.53</ele>
        <time>2018-04-30T10:32:27Z</time>
      </trkpt>
      <trkpt lat="44.60981" lon="2.05111">
        <ele>198.65</ele>
        <time>2018-04-30T10:32:42Z</time>
      </trkpt>
      <trkpt lat="44.60977" lon="2.05091">
        <ele>188.56</ele>
        <time>2018-04-30T10:33:03Z</time>
      </trkpt>
      <trkpt lat="44.60974" lon="2.05092">
        <ele>188.08</ele>
        <time>2018-04-30T10:33:05Z</time>
      </trkpt>
      <trkpt lat="44.60954" lon="2.05095">
        <ele>180.38</ele>
        <time>2018-04-30T10:33:23Z</time>
      </trkpt>
      <trkpt lat="44.60937" lon="2.0509">
        <ele>180.87</ele>
        <time>2018-04-30T10:33:42Z</time>
      </trkpt>
      <trkpt lat="44.60935" lon="2.05091">
        <ele>173.66</ele>
        <time>2018-04-30T10:34:04Z</time>
      </trkpt>
      <trkpt lat="44.60928" lon="2.0508">
        <ele>173.17</ele>
        <time>2018-04-30T10:34:34Z</time>
      </trkpt>
      <trkpt lat="44.60933" lon="2.05078">
        <ele>192.88</ele>
        <time>2018-04-30T10:35:01Z</time>
      </trkpt>
      <trkpt lat="44.60928" lon="2.05089">
        <ele>195.28</ele>
        <time>2018-04-30T10:35:37Z</time>
      </trkpt>
      <trkpt lat="44.60937" lon="2.05089">
        <ele>197.69</ele>
        <time>2018-04-30T10:36:03Z</time>
      </trkpt>
      <trkpt lat="44.60933" lon="2.05087">
        <ele>204.9</ele>
        <time>2018-04-30T10:36:33Z</time>
      </trkpt>
      <trkpt lat="44.60927" lon="2.05094">
        <ele>201.05</ele>
        <time>2018-04-30T10:37:05Z</time>
      </trkpt>
      <trkpt lat="44.6093" lon="2.05086">
        <ele>203.46</ele>
        <time>2018-04-30T10:37:35Z</time>
      </trkpt>
      <trkpt lat="44.60924" lon="2.05067">
        <ele>202.49</ele>
        <time>2018-04-30T10:37:51Z</time>
      </trkpt>
      <trkpt lat="44.60919" lon="2.05064">
        <ele>196.73</ele>
        <time>2018-04-30T10:38:21Z</time>
      </trkpt>
      <trkpt lat="44.60928" lon="2.05064">
        <ele>202.49</ele>
        <time>2018-04-30T10:38:50Z</time>
      </trkpt>
      <trkpt lat="44.6095" lon="2.05043">
        <ele>202.01</ele>
        <time>2018-04-30T10:39:21Z</time>
      </trkpt>
      <trkpt lat="44.60934" lon="2.05059">
        <ele>207.3</ele>
        <time>2018-04-30T10:39:54Z</time>
      </trkpt>
      <trkpt lat="44.60924" lon="2.05057">
        <ele>205.86</ele>
        <time>2018-04-30T10:40:21Z</time>
      </trkpt>
      <trkpt lat="44.60924" lon="2.05067">
        <ele>202.01</ele>
        <time>2018-04-30T10:40:43Z</time>
      </trkpt>
      <trkpt lat="44.60924" lon="2.05075">
        <ele>207.78</ele>
        <time>2018-04-30T10:41:14Z</time>
      </trkpt>
      <trkpt lat="44.60925" lon="2.05069">
        <ele>204.42</ele>
        <time>2018-04-30T10:41:49Z</time>
      </trkpt>
      <trkpt lat="44.60926" lon="2.05065">
        <ele>197.21</ele>
        <time>2018-04-30T10:42:31Z</time>
      </trkpt>
      <trkpt lat="44.60922" lon="2.05068">
        <ele>204.9</ele>
        <time>2018-04-30T10:43:05Z</time>
      </trkpt>
      <trkpt lat="44.60922" lon="2.05058">
        <ele>202.98</ele>
        <time>2018-04-30T10:43:32Z</time>
      </trkpt>
      <trkpt lat="44.60921" lon="2.05083">
        <ele>210.19</ele>
        <time>2018-04-30T10:44:06Z</time>
      </trkpt>
      <trkpt lat="44.6092" lon="2.05076">
        <ele>210.19</ele>
        <time>2018-04-30T10:44:38Z</time>
      </trkpt>
      <trkpt lat="44.60914" lon="2.05044">
        <ele>201.53</ele>
        <time>2018-04-30T10:44:55Z</time>
      </trkpt>
      <trkpt lat="44.60917" lon="2.0502">
        <ele>199.13</ele>
        <time>2018-04-30T10:45:12Z</time>
      </trkpt>
      <trkpt lat="44.60901" lon="2.04992">
        <ele>196.73</ele>
        <time>2018-04-30T10:45:32Z</time>
      </trkpt>
      <trkpt lat="44.6089" lon="2.04967">
        <ele>193.84</ele>
        <time>2018-04-30T10:45:51Z</time>
      </trkpt>
      <trkpt lat="44.60877" lon="2.04926">
        <ele>193.36</ele>
        <time>2018-04-30T10:46:13Z</time>
      </trkpt>
      <trkpt lat="44.60863" lon="2.04898">
        <ele>191.92</ele>
        <time>2018-04-30T10:46:33Z</time>
      </trkpt>
      <trkpt lat="44.60847" lon="2.04864">
        <ele>191.44</ele>
        <time>2018-04-30T10:46:55Z</time>
      </trkpt>
      <trkpt lat="44.6083" lon="2.04841">
        <ele>189.52</ele>
        <time>2018-04-30T10:47:14Z</time>
      </trkpt>
      <trkpt lat="44.60812" lon="2.04815">
        <ele>188.08</ele>
        <time>2018-04-30T10:47:36Z</time>
      </trkpt>
      <trkpt lat="44.60799" lon="2.04784">
        <ele>188.56</ele>
        <time>2018-04-30T10:47:57Z</time>
      </trkpt>
      <trkpt lat="44.60785" lon="2.04753">
        <ele>189.04</ele>
        <time>2018-04-30T10:48:20Z</time>
      </trkpt>
      <trkpt lat="44.60776" lon="2.04711">
        <ele>189.52</ele>
        <time>2018-04-30T10:48:43Z</time>
      </trkpt>
      <trkpt lat="44.60771" lon="2.04676">
        <ele>189.04</ele>
        <time>2018-04-30T10:49:04Z</time>
      </trkpt>
      <trkpt lat="44.60767" lon="2.04645">
        <ele>190.48</ele>
        <time>2018-04-30T10:49:24Z</time>
      </trkpt>
      <trkpt lat="44.60763" lon="2.0461">
        <ele>190.96</ele>
        <time>2018-04-30T10:49:46Z</time>
      </trkpt>
      <trkpt lat="44.60759" lon="2.04581">
        <ele>192.4</ele>
        <time>2018-04-30T10:50:03Z</time>
      </trkpt>
      <trkpt lat="44.60752" lon="2.04545">
        <ele>195.77</ele>
        <time>2018-04-30T10:50:23Z</time>
      </trkpt>
      <trkpt lat="44.60751" lon="2.04515">
        <ele>196.25</ele>
        <time>2018-04-30T10:50:41Z</time>
      </trkpt>
      <trkpt lat="44.60748" lon="2.04484">
        <ele>197.21</ele>
        <time>2018-04-30T10:51:01Z</time>
      </trkpt>
      <trkpt lat="44.60745" lon="2.0445">
        <ele>198.65</ele>
        <time>2018-04-30T10:51:21Z</time>
      </trkpt>
      <trkpt lat="44.60738" lon="2.04425">
        <ele>197.69</ele>
        <time>2018-04-30T10:51:37Z</time>
      </trkpt>
      <trkpt lat="44.60732" lon="2.04393">
        <ele>197.69</ele>
        <time>2018-04-30T10:51:55Z</time>
      </trkpt>
      <trkpt lat="44.60725" lon="2.04369">
        <ele>201.53</ele>
        <time>2018-04-30T10:52:09Z</time>
      </trkpt>
      <trkpt lat="44.60716" lon="2.04345">
        <ele>198.17</ele>
        <time>2018-04-30T10:52:26Z</time>
      </trkpt>
      <trkpt lat="44.60709" lon="2.04317">
        <ele>193.36</ele>
        <time>2018-04-30T10:52:45Z</time>
      </trkpt>
      <trkpt lat="44.60713" lon="2.04287">
        <ele>190.96</ele>
        <time>2018-04-30T10:53:02Z</time>
      </trkpt>
      <trkpt lat="44.60708" lon="2.04258">
        <ele>187.11</ele>
        <time>2018-04-30T10:53:20Z</time>
      </trkpt>
      <trkpt lat="44.60718" lon="2.04226">
        <ele>189.04</ele>
        <time>2018-04-30T10:53:35Z</time>
      </trkpt>
      <trkpt lat="44.60734" lon="2.04215">
        <ele>179.42</ele>
        <time>2018-04-30T10:53:52Z</time>
      </trkpt>
      <trkpt lat="44.6076" lon="2.04207">
        <ele>180.87</ele>
        <time>2018-04-30T10:54:09Z</time>
      </trkpt>
      <trkpt lat="44.60785" lon="2.04197">
        <ele>183.27</ele>
        <time>2018-04-30T10:54:30Z</time>
      </trkpt>
      <trkpt lat="44.60809" lon="2.04183">
        <ele>185.67</ele>
        <time>2018-04-30T10:54:49Z</time>
      </trkpt>
      <trkpt lat="44.60815" lon="2.04172">
        <ele>183.75</ele>
        <time>2018-04-30T10:55:04Z</time>
      </trkpt>
      <trkpt lat="44.60824" lon="2.04144">
        <ele>181.83</ele>
        <time>2018-04-30T10:55:20Z</time>
      </trkpt>
      <trkpt lat="44.60824" lon="2.04138">
        <ele>182.31</ele>
        <time>2018-04-30T10:55:23Z</time>
      </trkpt>
      <trkpt lat="44.60826" lon="2.04108">
        <ele>183.75</ele>
        <time>2018-04-30T10:55:41Z</time>
      </trkpt>
      <trkpt lat="44.60823" lon="2.04077">
        <ele>183.27</ele>
        <time>2018-04-30T10:56:00Z</time>
      </trkpt>
      <trkpt lat="44.60818" lon="2.04043">
        <ele>185.19</ele>
        <time>2018-04-30T10:56:16Z</time>
      </trkpt>
      <trkpt lat="44.60815" lon="2.04024">
        <ele>187.59</ele>
        <time>2018-04-30T10:56:31Z</time>
      </trkpt>
      <trkpt lat="44.60816" lon="2.03996">
        <ele>187.59</ele>
        <time>2018-04-30T10:56:46Z</time>
      </trkpt>
      <trkpt lat="44.60822" lon="2.03963">
        <ele>186.15</ele>
        <time>2018-04-30T10:57:04Z</time>
      </trkpt>
      <trkpt lat="44.60823" lon="2.03934">
        <ele>188.56</ele>
        <time>2018-04-30T10:57:20Z</time>
      </trkpt>
      <trkpt lat="44.60816" lon="2.03902">
        <ele>189.52</ele>
        <time>2018-04-30T10:57:39Z</time>
      </trkpt>
      <trkpt lat="44.60813" lon="2.0388">
        <ele>189.52</ele>
        <time>2018-04-30T10:57:53Z</time>
      </trkpt>
      <trkpt lat="44.60819" lon="2.03855">
        <ele>190.96</ele>
        <time>2018-04-30T10:58:07Z</time>
      </trkpt>
      <trkpt lat="44.60822" lon="2.03832">
        <ele>192.4</ele>
        <time>2018-04-30T10:58:22Z</time>
      </trkpt>
      <trkpt lat="44.60837" lon="2.03815">
        <ele>191.44</ele>
        <time>2018-04-30T10:58:38Z</time>
      </trkpt>
      <trkpt lat="44.60842" lon="2.03797">
        <ele>190</ele>
        <time>2018-04-30T10:58:55Z</time>
      </trkpt>
      <trkpt lat="44.6083" lon="2.03772">
        <ele>191.92</ele>
        <time>2018-04-30T10:59:11Z</time>
      </trkpt>
      <trkpt lat="44.60835" lon="2.03751">
        <ele>183.27</ele>
        <time>2018-04-30T10:59:34Z</time>
      </trkpt>
      <trkpt lat="44.60855" lon="2.03721">
        <ele>182.31</ele>
        <time>2018-04-30T10:59:56Z</time>
      </trkpt>
      <trkpt lat="44.6086" lon="2.03708">
        <ele>186.15</ele>
        <time>2018-04-30T11:00:15Z</time>
      </trkpt>
      <trkpt lat="44.60863" lon="2.03705">
        <ele>181.35</ele>
        <time>2018-04-30T11:00:41Z</time>
      </trkpt>
      <trkpt lat="44.60875" lon="2.03688">
        <ele>185.19</ele>
        <time>2018-04-30T11:01:03Z</time>
      </trkpt>
      <trkpt lat="44.60883" lon="2.03691">
        <ele>180.38</ele>
        <time>2018-04-30T11:01:22Z</time>
      </trkpt>
      <trkpt lat="44.609" lon="2.03676">
        <ele>174.62</ele>
        <time>2018-04-30T11:01:44Z</time>
      </trkpt>
      <trkpt lat="44.60901" lon="2.03673">
        <ele>174.62</ele>
        <time>2018-04-30T11:01:46Z</time>
      </trkpt>
      <trkpt lat="44.60907" lon="2.0364">
        <ele>175.58</ele>
        <time>2018-04-30T11:02:07Z</time>
      </trkpt>
      <trkpt lat="44.60922" lon="2.03621">
        <ele>178.94</ele>
        <time>2018-04-30T11:02:29Z</time>
      </trkpt>
      <trkpt lat="44.60929" lon="2.03604">
        <ele>179.9</ele>
        <time>2018-04-30T11:02:51Z</time>
      </trkpt>
      <trkpt lat="44.60936" lon="2.03568">
        <ele>180.38</ele>
        <time>2018-04-30T11:03:16Z</time>
      </trkpt>
      <trkpt lat="44.60944" lon="2.0355">
        <ele>179.42</ele>
        <time>2018-04-30T11:03:32Z</time>
      </trkpt>
      <trkpt lat="44.60952" lon="2.03515">
        <ele>176.54</ele>
        <time>2018-04-30T11:03:54Z</time>
      </trkpt>
      <trkpt lat="44.60956" lon="2.03492">
        <ele>175.58</ele>
        <time>2018-04-30T11:04:09Z</time>
      </trkpt>
      <trkpt lat="44.60961" lon="2.03466">
        <ele>185.19</ele>
        <time>2018-04-30T11:04:28Z</time>
      </trkpt>
      <trkpt lat="44.60952" lon="2.03469">
        <ele>198.65</ele>
        <time>2018-04-30T11:04:57Z</time>
      </trkpt>
      <trkpt lat="44.60957" lon="2.03469">
        <ele>211.63</ele>
        <time>2018-04-30T11:05:19Z</time>
      </trkpt>
      <trkpt lat="44.60954" lon="2.03481">
        <ele>202.01</ele>
        <time>2018-04-30T11:05:42Z</time>
      </trkpt>
      <trkpt lat="44.60956" lon="2.0348">
        <ele>198.17</ele>
        <time>2018-04-30T11:06:01Z</time>
      </trkpt>
      <trkpt lat="44.60951" lon="2.03491">
        <ele>194.8</ele>
        <time>2018-04-30T11:06:08Z</time>
      </trkpt>
      <trkpt lat="44.6094" lon="2.03502">
        <ele>190</ele>
        <time>2018-04-30T11:06:17Z</time>
      </trkpt>
      <trkpt lat="44.60908" lon="2.03519">
        <ele>181.35</ele>
        <time>2018-04-30T11:06:43Z</time>
      </trkpt>
      <trkpt lat="44.60907" lon="2.03529">
        <ele>178.94</ele>
        <time>2018-04-30T11:06:56Z</time>
      </trkpt>
      <trkpt lat="44.60902" lon="2.03541">
        <ele>178.46</ele>
        <time>2018-04-30T11:07:02Z</time>
      </trkpt>
      <trkpt lat="44.60905" lon="2.03606">
        <ele>179.9</ele>
        <time>2018-04-30T11:07:24Z</time>
      </trkpt>
      <trkpt lat="44.60895" lon="2.03656">
        <ele>187.59</ele>
        <time>2018-04-30T11:07:46Z</time>
      </trkpt>
      <trkpt lat="44.60875" lon="2.0368">
        <ele>190</ele>
        <time>2018-04-30T11:08:05Z</time>
      </trkpt>
      <trkpt lat="44.60856" lon="2.03712">
        <ele>193.36</ele>
        <time>2018-04-30T11:08:25Z</time>
      </trkpt>
      <trkpt lat="44.60845" lon="2.03737">
        <ele>189.52</ele>
        <time>2018-04-30T11:08:41Z</time>
      </trkpt>
    </trkseg>
  </trk>
</gpx>